Observation data for Fort Lancaster on 11/22/2019      Previous  Date       Current Mesonet Observations  Soil Data  Daily Summary Page  Observations in Plain Language
KLA1 220600Z 30009KT 19/19 A2998 RMK A01 T01870187  RH  100%=      5-min Rain = 0
KLA1 220601Z 30009KT 19/19 A2998 RMK A01 T01870187  RH  100%=      5-min Rain = 0
KLA1 220602Z 30008KT 19/19 A2999 RMK A01 T01880187  RH  099%=      5-min Rain = 0
KLA1 220603Z 30006KT 19/19 A2999 RMK A01 T01890187  RH  099%=      5-min Rain = 0
KLA1 220604Z 30006KT 19/19 A2999 RMK A01 T01890187  RH  098%=      5-min Rain = 0
KLA1 220605Z 30008KT 19/19 A2999 RMK A01 T01890186  RH  098%=      5-min Rain = 0
KLA1 220606Z 30009KT 19/19 A2999 RMK A01 T01900186  RH  098%=      5-min Rain = 0
KLA1 220607Z 30009KT 19/19 A2999 RMK A01 T01900186  RH  097%=      5-min Rain = 0
KLA1 220608Z 30008KT 19/19 A2999 RMK A01 T01910185  RH  097%=      5-min Rain = 0
KLA1 220609Z 30007KT 19/19 A2999 RMK A01 T01910185  RH  096%=      5-min Rain = 0
KLA1 220610Z 30008KT 19/19 A2999 RMK A01 T01910185  RH  096%=      5-min Rain = 0
KLA1 220611Z 30007KT 19/19 A2999 RMK A01 T01920185  RH  096%=      5-min Rain = 0
KLA1 220612Z 32006KT 19/19 A2999 RMK A01 T01920185  RH  096%=      5-min Rain = 0
KLA1 220613Z 32006KT 19/19 A2999 RMK A01 T01920185  RH  096%=      5-min Rain = 0
KLA1 220614Z 33005KT 19/19 A2999 RMK A01 T01920185  RH  096%=      5-min Rain = 0
KLA1 220615Z 31006KT 19/19 A2999 RMK A01 T01920185  RH  095%=      5-min Rain = 0
KLA1 220616Z 31006KT 19/19 A2999 RMK A01 T01920185  RH  095%=      5-min Rain = 0
KLA1 220617Z 32005KT 19/19 A2999 RMK A01 T01920185  RH  095%=      5-min Rain = 0
KLA1 220618Z 32006KT 19/19 A2999 RMK A01 T01920185  RH  095%=      5-min Rain = 0
KLA1 220619Z 32005KT 19/19 A2998 RMK A01 T01920185  RH  095%=      5-min Rain = 0
KLA1 220620Z 33005KT 19/18 A2998 RMK A01 T01920184  RH  095%=      5-min Rain = 0
KLA1 220621Z 32005KT 19/19 A2998 RMK A01 T01930185  RH  095%=      5-min Rain = 0
KLA1 220622Z 32003KT 19/18 A2998 RMK A01 T01920184  RH  095%=      5-min Rain = 0
KLA1 220623Z 31004KT 19/18 A2998 RMK A01 T01920184  RH  095%=      5-min Rain = 0
KLA1 220624Z 31004KT 19/18 A2998 RMK A01 T01920184  RH  095%=      5-min Rain = 0
KLA1 220625Z 32003KT 19/18 A2998 RMK A01 T01920184  RH  095%=      5-min Rain = 0
KLA1 220626Z 33003KT 19/18 A2998 RMK A01 T01920184  RH  095%=      5-min Rain = 0
KLA1 220627Z 33003KT 19/18 A2998 RMK A01 T01920184  RH  095%=      5-min Rain = 0
KLA1 220628Z 31003KT 19/18 A2998 RMK A01 T01920184  RH  095%=      5-min Rain = 0
KLA1 220629Z 32004KT 19/18 A2998 RMK A01 T01910183  RH  095%=      5-min Rain = 0
KLA1 220630Z 30003KT 19/18 A2998 RMK A01 T01910183  RH  095%=      5-min Rain = 0
KLA1 220631Z 30003KT 19/18 A2998 RMK A01 T01910183  RH  095%=      5-min Rain = 0
KLA1 220632Z 30004KT 19/18 A2998 RMK A01 T01910183  RH  095%=      5-min Rain = 0
KLA1 220633Z 30003KT 19/18 A2998 RMK A01 T01900183  RH  095%=      5-min Rain = 0
KLA1 220634Z 31002KT 19/18 A2998 RMK A01 T01900183  RH  095%=      5-min Rain = 0
KLA1 220635Z 30003KT 19/18 A2998 RMK A01 T01900182  RH  095%=      5-min Rain = 0
KLA1 220636Z 30004KT 19/18 A2998 RMK A01 T01890182  RH  096%=      5-min Rain = 0
KLA1 220637Z 31004KT 19/18 A2998 RMK A01 T01890183  RH  096%=      5-min Rain = 0
KLA1 220638Z 31004KT 19/18 A2998 RMK A01 T01890183  RH  096%=      5-min Rain = 0
KLA1 220639Z 31004KT 19/18 A2998 RMK A01 T01890183  RH  096%=      5-min Rain = 0
KLA1 220640Z 31004KT 19/18 A2999 RMK A01 T01890183  RH  096%=      5-min Rain = 0
KLA1 220641Z 31004KT 19/18 A2999 RMK A01 T01890183  RH  096%=      5-min Rain = 0
KLA1 220642Z 31005KT 19/18 A2999 RMK A01 T01890183  RH  096%=      5-min Rain = 0
KLA1 220643Z 31004KT 19/18 A2999 RMK A01 T01900183  RH  096%=      5-min Rain = 0
KLA1 220644Z 36008G14KT 19/18 A2999 RMK A01 T01900183  RH  096%=      5-min Rain = 0
KLA1 220645Z 01012KT 19/17 A2999 RMK A01 T01880168  RH  088%=      5-min Rain = 0
KLA1 220646Z 01013G21KT 18/15 A2999 RMK A01 T01790146  RH  081%=      5-min Rain = 0
KLA1 220647Z 01017KT 17/14 A2999 RMK A01 T01700136  RH  080%=      5-min Rain = 0
KLA1 220648Z 01016G21KT 16/13 A30 RMK A01 T01630131  RH  081%=      5-min Rain = 0
KLA1 220649Z 01015KT 16/13 A30 RMK A01 T01570129  RH  083%=      5-min Rain = 0
KLA1 220650Z 01014G19KT 15/13 A30 RMK A01 T01540127  RH  084%=      5-min Rain = 0
KLA1 220651Z 02015KT 15/13 A30 RMK A01 T01510125  RH  085%=      5-min Rain = 0
KLA1 220652Z 01014KT 15/12 A30 RMK A01 T01480122  RH  085%=      5-min Rain = 0
KLA1 220653Z 01017G25KT 15/12 A30 RMK A01 T01460121  RH  085%=      5-min Rain = 0
KLA1 220654Z 00018G23KT 14/12 A30 RMK A01 T01440117  RH  084%=      5-min Rain = 0
KLA1 220655Z 35016KT 14/12 A30 RMK A01 T01420116  RH  084%=      5-min Rain = 0
KLA1 220656Z 36015G20KT 14/12 A30 RMK A01 T01410115  RH  085%=      5-min Rain = 0
KLA1 220657Z 36014G19KT 14/12 A30 RMK A01 T01390115  RH  085%=      5-min Rain = 0
KLA1 220658Z 35018G23KT 14/11 A3001 RMK A01 T01390113  RH  085%=      5-min Rain = 0
KLA1 220659Z 36019KT 14/11 A3001 RMK A01 T01370111  RH  085%=      5-min Rain = 0
KLA1 220700Z 00017G22KT 14/11 A3001 RMK A01 T01360111  RH  085%=      5-min Rain = 0
KLA1 220701Z 36015G21KT 13/11 A3001 RMK A01 T01340110  RH  085%=      5-min Rain = 0
KLA1 220702Z 00020KT 13/11 A3001 RMK A01 T01330109  RH  086%=      5-min Rain = 0
KLA1 220703Z 36017KT 13/11 A3001 RMK A01 T01310108  RH  086%=      5-min Rain = 0
KLA1 220704Z 36020G25KT 13/11 A3001 RMK A01 T01300107  RH  085%=      5-min Rain = 0
KLA1 220705Z 35020G26KT 13/10 A3001 RMK A01 T01290104  RH  085%=      5-min Rain = 0
KLA1 220706Z 35018KT 13/10 A3001 RMK A01 T01270103  RH  085%=      5-min Rain = 0
KLA1 220707Z 00015KT 13/10 A3001 RMK A01 T01260103  RH  086%=      5-min Rain = 0
KLA1 220708Z 36020G25KT 13/10 A3001 RMK A01 T01250102  RH  086%=      5-min Rain = 0
KLA1 220709Z 36020G27KT 12/10 A3001 RMK A01 T01240101  RH  086%=      5-min Rain = 0
KLA1 220710Z 01019G25KT 12/10 A3001 RMK A01 T01230100  RH  086%=      5-min Rain = 0
KLA1 220711Z 01018KT 12/10 A3001 RMK A01 T01210099  RH  086%=      5-min Rain = 0
KLA1 220712Z 36018G24KT 12/10 A3001 RMK A01 T01200099  RH  087%=      5-min Rain = 0
KLA1 220713Z 35021G26KT 12/10 A3001 RMK A01 T01190097  RH  087%=      5-min Rain = 0
KLA1 220714Z 00017G25KT 12/10 A3002 RMK A01 T01170096  RH  087%=      5-min Rain = 0
KLA1 220715Z 36018G27KT 12/10 A3002 RMK A01 T01160096  RH  087%=      5-min Rain = 0
KLA1 220716Z 35020G25KT 12/10 A3002 RMK A01 T01150095  RH  088%=      5-min Rain = 0
KLA1 220717Z 36023KT 11/09 A3002 RMK A01 T01130094  RH  088%=      5-min Rain = 0
KLA1 220718Z 36020KT 11/09 A3002 RMK A01 T01120094  RH  088%=      5-min Rain = 0
KLA1 220719Z 00022G27KT 11/09 A3002 RMK A01 T01110094  RH  089%=      5-min Rain = 0
KLA1 220720Z 36018G24KT 11/09 A3002 RMK A01 T01100093  RH  089%=      5-min Rain = 0
KLA1 220721Z 00023KT 11/09 A3002 RMK A01 T01100093  RH  090%=      5-min Rain = 0
KLA1 220722Z 35021G26KT 11/09 A3002 RMK A01 T01090093  RH  090%=      5-min Rain = 0
KLA1 220723Z 35016G21KT 11/09 A3003 RMK A01 T01090093  RH  090%=      5-min Rain = 0
KLA1 220724Z 36018G25KT 11/09 A3003 RMK A01 T01090093  RH  090%=      5-min Rain = 0
KLA1 220725Z 35017G25KT 11/09 A3003 RMK A01 T01080093  RH  090%=      5-min Rain = 0
KLA1 220726Z 35015G20KT 11/09 A3003 RMK A01 T01080093  RH  090%=      5-min Rain = 0
KLA1 220727Z 35021KT 11/09 A3003 RMK A01 T01080093  RH  090%=      5-min Rain = 0
KLA1 220728Z 35022G27KT 11/09 A3003 RMK A01 T01070092  RH  090%=      5-min Rain = 0
KLA1 220729Z 34020G25KT 11/09 A3003 RMK A01 T01060091  RH  091%=      5-min Rain = 0
KLA1 220730Z 36019G25KT 11/09 A3003 RMK A01 T01060091  RH  091%=      5-min Rain = 0
KLA1 220731Z 36018G28KT 11/09 A3004 RMK A01 T01050091  RH  091%=      5-min Rain = 0
KLA1 220732Z 35019KT 11/09 A3004 RMK A01 T01050091  RH  091%=      5-min Rain = 0
KLA1 220733Z 35017G22KT 11/09 A3004 RMK A01 T01050091  RH  091%=      5-min Rain = 0
KLA1 220734Z 35014G22KT 10/09 A3004 RMK A01 T01040090  RH  091%=      5-min Rain = 0
KLA1 220735Z 35019G24KT 10/09 A3004 RMK A01 T01040090  RH  091%=      5-min Rain = 0
KLA1 220736Z 35018G23KT 10/09 A3004 RMK A01 T01030089  RH  091%=      5-min Rain = 0
KLA1 220737Z 35016KT 10/09 A3005 RMK A01 T01030089  RH  091%=      5-min Rain = 0
KLA1 220738Z 35015G23KT 10/09 A3005 RMK A01 T01020089  RH  092%=      5-min Rain = 0
KLA1 220739Z 35013G20KT 10/09 A3005 RMK A01 T01020089  RH  091%=      5-min Rain = 0
KLA1 220740Z 35012G17KT 10/09 A3005 RMK A01 T01020088  RH  091%=      5-min Rain = 0
KLA1 220741Z 36012KT 10/09 A3005 RMK A01 T01020089  RH  091%=      5-min Rain = 0
KLA1 220742Z 35015KT 10/09 A3005 RMK A01 T01020088  RH  091%=      5-min Rain = 0
KLA1 220743Z 35012G23KT 10/09 A3005 RMK A01 T01010087  RH  091%=      5-min Rain = 0
KLA1 220744Z 35015KT 10/09 A3005 RMK A01 T01010087  RH  091%=      5-min Rain = 0
KLA1 220745Z 35013G18KT 10/09 A3005 RMK A01 T01000086  RH  091%=      5-min Rain = 0
KLA1 220746Z 35014G19KT 10/09 A3005 RMK A01 T01010087  RH  091%=      5-min Rain = 0
KLA1 220747Z 34010KT 10/09 A3005 RMK A01 T01000086  RH  091%=      5-min Rain = 0
KLA1 220748Z 34012G23KT 10/09 A3005 RMK A01 T01000086  RH  091%=      5-min Rain = 0
KLA1 220749Z 34009G16KT 10/09 A3006 RMK A01 T01000085  RH  091%=      5-min Rain = 0
KLA1 220750Z 34011KT 10/09 A3006 RMK A01 T01000085  RH  091%=      5-min Rain = 0
KLA1 220751Z 34011KT 10/09 A3006 RMK A01 T01000085  RH  090%=      5-min Rain = 0
KLA1 220752Z 34012G17KT 10/09 A3006 RMK A01 T01000085  RH  090%=      5-min Rain = 0
KLA1 220753Z 35012G17KT 10/09 A3006 RMK A01 T01000085  RH  090%=      5-min Rain = 0
KLA1 220754Z 35012G17KT 10/09 A3006 RMK A01 T01000085  RH  090%=      5-min Rain = 0
KLA1 220755Z 35012G17KT 10/08 A3006 RMK A01 T01000084  RH  090%=      5-min Rain = 0
KLA1 220756Z 35014KT 10/08 A3005 RMK A01 T00990084  RH  090%=      5-min Rain = 0
KLA1 220757Z 35016G21KT 10/08 A3005 RMK A01 T00990083  RH  090%=      5-min Rain = 0
KLA1 220758Z 34013KT 10/08 A3005 RMK A01 T00990083  RH  090%=      5-min Rain = 0
KLA1 220759Z 35015G21KT 10/08 A3005 RMK A01 T00980083  RH  090%=      5-min Rain = 0
KLA1 220800Z 34012G17KT 10/08 A3005 RMK A01 T00980082  RH  090%=      5-min Rain = 0
KLA1 220801Z 35016G21KT 10/08 A3005 RMK A01 T00980082  RH  090%=      5-min Rain = 0
KLA1 220802Z 35015G21KT 10/08 A3005 RMK A01 T00980082  RH  090%=      5-min Rain = 0
KLA1 220803Z 34013KT 10/08 A3005 RMK A01 T00980082  RH  090%=      5-min Rain = 0
KLA1 220804Z 33015G22KT 10/08 A3005 RMK A01 T00980081  RH  090%=      5-min Rain = 0
KLA1 220805Z 33010KT 10/08 A3006 RMK A01 T00970081  RH  090%=      5-min Rain = 0
KLA1 220806Z 34013G19KT 10/08 A3006 RMK A01 T00970081  RH  090%=      5-min Rain = 0
KLA1 220807Z 33012G18KT 10/08 A3006 RMK A01 T00970080  RH  089%=      5-min Rain = 0
KLA1 220808Z 35012G18KT 10/08 A3006 RMK A01 T00970080  RH  089%=      5-min Rain = 0
KLA1 220809Z 33012KT 10/08 A3006 RMK A01 T00970080  RH  089%=      5-min Rain = 0
KLA1 220810Z 34012KT 10/08 A3006 RMK A01 T00970080  RH  089%=      5-min Rain = 0
KLA1 220811Z 34011KT 10/08 A3006 RMK A01 T00970080  RH  089%=      5-min Rain = 0
KLA1 220812Z 35014G20KT 10/08 A3006 RMK A01 T00970080  RH  089%=      5-min Rain = 0
KLA1 220813Z 34016KT 10/08 A3006 RMK A01 T00970079  RH  089%=      5-min Rain = 0
KLA1 220814Z 34015KT 10/08 A3006 RMK A01 T00960079  RH  089%=      5-min Rain = 0
KLA1 220815Z 34014G21KT 10/08 A3006 RMK A01 T00960079  RH  089%=      5-min Rain = 0
KLA1 220816Z 34013KT 10/08 A3006 RMK A01 T00960079  RH  089%=      5-min Rain = 0
KLA1 220817Z 34012KT 10/08 A3006 RMK A01 T00960079  RH  089%=      5-min Rain = 0
KLA1 220818Z 34012KT 10/08 A3006 RMK A01 T00960079  RH  089%=      5-min Rain = 0
KLA1 220819Z 34009G14KT 10/08 A3007 RMK A01 T00960079  RH  089%=      5-min Rain = 0
KLA1 220820Z 34015G21KT 10/08 A3007 RMK A01 T00960078  RH  089%=      5-min Rain = 0
KLA1 220821Z 35014KT 10/08 A3007 RMK A01 T00960078  RH  089%=      5-min Rain = 0
KLA1 220822Z 35014KT 10/08 A3007 RMK A01 T00950078  RH  089%=      5-min Rain = 0
KLA1 220823Z 34013G18KT 10/08 A3007 RMK A01 T00950077  RH  089%=      5-min Rain = 0
KLA1 220824Z 34012G17KT 10/08 A3007 RMK A01 T00950076  RH  088%=      5-min Rain = 0
KLA1 220825Z 34008G13KT 09/08 A3007 RMK A01 T00940076  RH  089%=      5-min Rain = 0
KLA1 220826Z 35008G13KT 09/08 A3007 RMK A01 T00940076  RH  089%=      5-min Rain = 0
KLA1 220827Z 33007G12KT 09/08 A3007 RMK A01 T00940076  RH  088%=      5-min Rain = 0
KLA1 220828Z 33007KT 10/08 A3007 RMK A01 T00950076  RH  088%=      5-min Rain = 0
KLA1 220829Z 32008G13KT 10/08 A3007 RMK A01 T00950076  RH  088%=      5-min Rain = 0
KLA1 220830Z 34009G15KT 09/08 A3007 RMK A01 T00940075  RH  088%=      5-min Rain = 0
KLA1 220831Z 34010KT 10/08 A3007 RMK A01 T00950075  RH  087%=      5-min Rain = 0
KLA1 220832Z 33008G13KT 10/08 A3007 RMK A01 T00950075  RH  087%=      5-min Rain = 0
KLA1 220833Z 33008KT 10/08 A3007 RMK A01 T00950075  RH  087%=      5-min Rain = 0
KLA1 220834Z 33011G16KT 09/07 A3007 RMK A01 T00940074  RH  087%=      5-min Rain = 0
KLA1 220835Z 34012KT 09/07 A3007 RMK A01 T00940073  RH  087%=      5-min Rain = 0
KLA1 220836Z 34010G15KT 09/07 A3007 RMK A01 T00940072  RH  087%=      5-min Rain = 0
KLA1 220837Z 34010G20KT 09/07 A3007 RMK A01 T00930072  RH  086%=      5-min Rain = 0
KLA1 220838Z 34013G20KT 09/07 A3008 RMK A01 T00940072  RH  086%=      5-min Rain = 0
KLA1 220839Z 34011G16KT 09/07 A3008 RMK A01 T00940072  RH  086%=      5-min Rain = 0
KLA1 220840Z 34013G19KT 09/07 A3008 RMK A01 T00930071  RH  086%=      5-min Rain = 0
KLA1 220841Z 34009KT 09/07 A3008 RMK A01 T00930071  RH  086%=      5-min Rain = 0
KLA1 220842Z 34006KT 09/07 A3008 RMK A01 T00940072  RH  086%=      5-min Rain = 0
KLA1 220843Z 35011G18KT 09/07 A3008 RMK A01 T00930071  RH  086%=      5-min Rain = 0
KLA1 220844Z 34010KT 09/07 A3008 RMK A01 T00940071  RH  086%=      5-min Rain = 0
KLA1 220845Z 34009KT 09/07 A3008 RMK A01 T00940071  RH  086%=      5-min Rain = 0
KLA1 220846Z 32009KT 09/07 A3008 RMK A01 T00930071  RH  086%=      5-min Rain = 0
KLA1 220847Z 34009G15KT 09/07 A3008 RMK A01 T00940071  RH  086%=      5-min Rain = 0
KLA1 220848Z 35011KT 09/07 A3008 RMK A01 T00930071  RH  086%=      5-min Rain = 0
KLA1 220849Z 34008KT 09/07 A3008 RMK A01 T00930071  RH  086%=      5-min Rain = 0
KLA1 220850Z 34007KT 09/07 A3008 RMK A01 T00940070  RH  086%=      5-min Rain = 0
KLA1 220851Z 35009KT 09/07 A3008 RMK A01 T00940070  RH  085%=      5-min Rain = 0
KLA1 220852Z 35009KT 09/07 A3008 RMK A01 T00940070  RH  085%=      5-min Rain = 0
KLA1 220853Z 35009KT 09/07 A3008 RMK A01 T00930070  RH  085%=      5-min Rain = 0
KLA1 220854Z 34008KT 09/07 A3008 RMK A01 T00940070  RH  085%=      5-min Rain = 0
KLA1 220855Z 34010KT 09/07 A3008 RMK A01 T00940070  RH  085%=      5-min Rain = 0
KLA1 220856Z 34008KT 09/07 A3008 RMK A01 T00940069  RH  085%=      5-min Rain = 0
KLA1 220857Z 33007KT 09/07 A3008 RMK A01 T00940070  RH  085%=      5-min Rain = 0
KLA1 220858Z 35009KT 09/07 A3008 RMK A01 T00940070  RH  085%=      5-min Rain = 0
KLA1 220859Z 34005KT 09/07 A3008 RMK A01 T00930069  RH  085%=      5-min Rain = 0
KLA1 220900Z 35005KT 09/07 A3008 RMK A01 T00930069  RH  085%=      5-min Rain = 0
KLA1 220901Z 35005KT 09/07 A3008 RMK A01 T00940070  RH  085%=      5-min Rain = 0
KLA1 220902Z 36007KT 09/07 A3008 RMK A01 T00940070  RH  085%=      5-min Rain = 0
KLA1 220903Z 34009KT 09/07 A3008 RMK A01 T00940070  RH  085%=      5-min Rain = 0
KLA1 220904Z 34011KT 09/07 A3008 RMK A01 T00940070  RH  085%=      5-min Rain = 0
KLA1 220905Z 34010KT 09/07 A3008 RMK A01 T00940069  RH  085%=      5-min Rain = 0
KLA1 220906Z 34012KT 09/07 A3008 RMK A01 T00940070  RH  085%=      5-min Rain = 0
KLA1 220907Z 35011KT 09/07 A3008 RMK A01 T00940069  RH  085%=      5-min Rain = 0
KLA1 220908Z 34009KT 09/07 A3008 RMK A01 T00940070  RH  085%=      5-min Rain = 0
KLA1 220909Z 35008KT 09/07 A3008 RMK A01 T00940070  RH  085%=      5-min Rain = 0
KLA1 220910Z 35010KT 09/07 A3008 RMK A01 T00940070  RH  085%=      5-min Rain = 0
KLA1 220911Z 34007KT 09/07 A3008 RMK A01 T00940070  RH  085%=      5-min Rain = 0
KLA1 220912Z 33007KT 09/07 A3008 RMK A01 T00940069  RH  085%=      5-min Rain = 0
KLA1 220913Z 34006KT 09/07 A3008 RMK A01 T00940070  RH  085%=      5-min Rain = 0
KLA1 220914Z 33006KT 10/07 A3008 RMK A01 T00950070  RH  085%=      5-min Rain = 0
KLA1 220915Z 33005KT 10/07 A3008 RMK A01 T00950070  RH  085%=      5-min Rain = 0
KLA1 220916Z 33006KT 10/07 A3008 RMK A01 T00950070  RH  085%=      5-min Rain = 0
KLA1 220917Z 34006KT 10/07 A3008 RMK A01 T00950070  RH  085%=      5-min Rain = 0
KLA1 220918Z 33006KT 10/07 A3008 RMK A01 T00950070  RH  084%=      5-min Rain = 0
KLA1 220919Z 32005KT 10/07 A3008 RMK A01 T00950070  RH  084%=      5-min Rain = 0
KLA1 220920Z 32010KT 10/07 A3008 RMK A01 T00950070  RH  084%=      5-min Rain = 0
KLA1 220921Z 32008KT 10/07 A3008 RMK A01 T00950070  RH  084%=      5-min Rain = 0
KLA1 220922Z 33007KT 10/07 A3009 RMK A01 T00950070  RH  084%=      5-min Rain = 0
KLA1 220923Z 32007KT 10/07 A3009 RMK A01 T00950070  RH  084%=      5-min Rain = 0
KLA1 220924Z 31006KT 10/07 A3009 RMK A01 T00950070  RH  084%=      5-min Rain = 0
KLA1 220925Z 33009KT 10/07 A3008 RMK A01 T00950070  RH  084%=      5-min Rain = 0
KLA1 220926Z 33006KT 10/07 A3008 RMK A01 T00950070  RH  084%=      5-min Rain = 0
KLA1 220927Z 33008KT 10/07 A3008 RMK A01 T00950070  RH  084%=      5-min Rain = 0
KLA1 220928Z 34007KT 10/07 A3008 RMK A01 T00950070  RH  084%=      5-min Rain = 0
KLA1 220929Z 34005KT 10/07 A3009 RMK A01 T00950070  RH  084%=      5-min Rain = 0
KLA1 220930Z 34008KT 10/07 A3009 RMK A01 T00950070  RH  084%=      5-min Rain = 0
KLA1 220931Z 32007G13KT 10/07 A3009 RMK A01 T00950070  RH  084%=      5-min Rain = 0
KLA1 220932Z 34008KT 10/07 A3009 RMK A01 T00950069  RH  084%=      5-min Rain = 0
KLA1 220933Z 34006G11KT 10/07 A3009 RMK A01 T00950069  RH  084%=      5-min Rain = 0
KLA1 220934Z 34010KT 10/07 A3009 RMK A01 T00950069  RH  084%=      5-min Rain = 0
KLA1 220935Z 34010KT 10/07 A3009 RMK A01 T00950069  RH  084%=      5-min Rain = 0
KLA1 220936Z 33007KT 10/07 A3009 RMK A01 T00950069  RH  084%=      5-min Rain = 0
KLA1 220937Z 35010KT 10/07 A3009 RMK A01 T00950068  RH  084%=      5-min Rain = 0
KLA1 220938Z 34007KT 10/07 A3009 RMK A01 T00950068  RH  083%=      5-min Rain = 0
KLA1 220939Z 32008KT 10/07 A3009 RMK A01 T00950068  RH  083%=      5-min Rain = 0
KLA1 220940Z 33008KT 10/07 A3009 RMK A01 T00950068  RH  083%=      5-min Rain = 0
KLA1 220941Z 33008KT 10/07 A3009 RMK A01 T00950067  RH  083%=      5-min Rain = 0
KLA1 220942Z 33005KT 10/07 A3009 RMK A01 T00950067  RH  083%=      5-min Rain = 0
KLA1 220943Z 33008KT 10/07 A3009 RMK A01 T00950067  RH  083%=      5-min Rain = 0
KLA1 220944Z 33008KT 10/07 A3009 RMK A01 T00950067  RH  083%=      5-min Rain = 0
KLA1 220945Z 34007KT 10/07 A3009 RMK A01 T00950067  RH  082%=      5-min Rain = 0
KLA1 220946Z 32008KT 10/07 A3009 RMK A01 T00950066  RH  082%=      5-min Rain = 0
KLA1 220947Z 33007KT 10/07 A3009 RMK A01 T00950066  RH  082%=      5-min Rain = 0
KLA1 220948Z 32008G13KT 10/07 A3009 RMK A01 T00950066  RH  082%=      5-min Rain = 0
KLA1 220949Z 35010KT 10/07 A3009 RMK A01 T00950066  RH  082%=      5-min Rain = 0
KLA1 220950Z 33009KT 09/07 A3009 RMK A01 T00940065  RH  082%=      5-min Rain = 0
KLA1 220951Z 33007KT 09/07 A3009 RMK A01 T00940065  RH  082%=      5-min Rain = 0
KLA1 220952Z 34007KT 09/07 A3009 RMK A01 T00940065  RH  082%=      5-min Rain = 0
KLA1 220953Z 34008KT 09/07 A3009 RMK A01 T00940065  RH  082%=      5-min Rain = 0
KLA1 220954Z 34008KT 09/07 A3009 RMK A01 T00940065  RH  082%=      5-min Rain = 0
KLA1 220955Z 33005KT 09/07 A3008 RMK A01 T00930065  RH  082%=      5-min Rain = 0
KLA1 220956Z 33006KT 09/07 A3008 RMK A01 T00940065  RH  082%=      5-min Rain = 0
KLA1 220957Z 33009KT 09/07 A3008 RMK A01 T00930065  RH  082%=      5-min Rain = 0
KLA1 220958Z 33006KT 09/07 A3008 RMK A01 T00930065  RH  082%=      5-min Rain = 0
KLA1 220959Z 34005KT 09/07 A3009 RMK A01 T00940065  RH  082%=      5-min Rain = 0
KLA1 221000Z 31009KT 09/07 A3009 RMK A01 T00940065  RH  082%=      5-min Rain = 0
KLA1 221001Z 31008KT 09/07 A3009 RMK A01 T00940065  RH  082%=      5-min Rain = 0
KLA1 221002Z 33006KT 09/07 A3009 RMK A01 T00930065  RH  082%=      5-min Rain = 0
KLA1 221003Z 32005KT 09/07 A3009 RMK A01 T00930065  RH  083%=      5-min Rain = 0
KLA1 221004Z 32007KT 09/06 A3009 RMK A01 T00930064  RH  083%=      5-min Rain = 0
KLA1 221005Z 32009KT 09/06 A3009 RMK A01 T00920064  RH  083%=      5-min Rain = 0
KLA1 221006Z 32006KT 09/06 A3009 RMK A01 T00920064  RH  083%=      5-min Rain = 0
KLA1 221007Z 32007KT 09/07 A3009 RMK A01 T00920065  RH  083%=      5-min Rain = 0
KLA1 221008Z 32006KT 09/06 A3009 RMK A01 T00910064  RH  083%=      5-min Rain = 0
KLA1 221009Z 33006KT 09/06 A3009 RMK A01 T00910064  RH  083%=      5-min Rain = 0
KLA1 221010Z 32007KT 09/06 A3009 RMK A01 T00910064  RH  083%=      5-min Rain = 0
KLA1 221011Z 32006KT 09/06 A3009 RMK A01 T00910064  RH  083%=      5-min Rain = 0
KLA1 221012Z 31007KT 09/06 A3009 RMK A01 T00910064  RH  084%=      5-min Rain = 0
KLA1 221013Z 32007KT 09/06 A3009 RMK A01 T00900064  RH  084%=      5-min Rain = 0
KLA1 221014Z 33006G11KT 09/06 A3009 RMK A01 T00900063  RH  084%=      5-min Rain = 0
KLA1 221015Z 33005KT 09/06 A3009 RMK A01 T00900064  RH  084%=      5-min Rain = 0
KLA1 221016Z 32005KT 09/06 A3009 RMK A01 T00900063  RH  084%=      5-min Rain = 0
KLA1 221017Z 32008KT 09/06 A3009 RMK A01 T00890063  RH  084%=      5-min Rain = 0
KLA1 221018Z 34005KT 09/06 A3009 RMK A01 T00890063  RH  084%=      5-min Rain = 0
KLA1 221019Z 34005KT 09/06 A3009 RMK A01 T00890063  RH  084%=      5-min Rain = 0
KLA1 221020Z 33006KT 09/06 A3009 RMK A01 T00890063  RH  084%=      5-min Rain = 0
KLA1 221021Z 34005KT 09/06 A3009 RMK A01 T00890063  RH  084%=      5-min Rain = 0
KLA1 221022Z 32006KT 09/06 A3009 RMK A01 T00890063  RH  084%=      5-min Rain = 0
KLA1 221023Z 32006KT 09/06 A3009 RMK A01 T00880063  RH  084%=      5-min Rain = 0
KLA1 221024Z 34006KT 09/06 A3009 RMK A01 T00890063  RH  084%=      5-min Rain = 0
KLA1 221025Z 33007KT 09/06 A3009 RMK A01 T00880063  RH  084%=      5-min Rain = 0
KLA1 221026Z 32007KT 09/06 A3009 RMK A01 T00880062  RH  084%=      5-min Rain = 0
KLA1 221027Z 32007KT 09/06 A3009 RMK A01 T00880062  RH  084%=      5-min Rain = 0
KLA1 221028Z 32005KT 09/06 A3009 RMK A01 T00880062  RH  084%=      5-min Rain = 0
KLA1 221029Z 32006KT 09/06 A3009 RMK A01 T00880062  RH  084%=      5-min Rain = 0
KLA1 221030Z 32005KT 09/06 A3009 RMK A01 T00880062  RH  084%=      5-min Rain = 0
KLA1 221031Z 32006KT 09/06 A3009 RMK A01 T00880062  RH  084%=      5-min Rain = 0
KLA1 221032Z 32007KT 09/06 A3009 RMK A01 T00880062  RH  084%=      5-min Rain = 0
KLA1 221033Z 31008KT 09/06 A3009 RMK A01 T00880062  RH  084%=      5-min Rain = 0
KLA1 221034Z 33005G10KT 09/06 A3009 RMK A01 T00870062  RH  084%=      5-min Rain = 0
KLA1 221035Z 34005KT 09/06 A3009 RMK A01 T00870062  RH  084%=      5-min Rain = 0
KLA1 221036Z 34005KT 09/06 A3009 RMK A01 T00870062  RH  084%=      5-min Rain = 0
KLA1 221037Z 34005KT 09/06 A3009 RMK A01 T00870062  RH  084%=      5-min Rain = 0
KLA1 221038Z 33005KT 09/06 A3009 RMK A01 T00870062  RH  085%=      5-min Rain = 0
KLA1 221039Z 33006KT 09/06 A3009 RMK A01 T00860062  RH  085%=      5-min Rain = 0
KLA1 221040Z 33005KT 09/06 A3009 RMK A01 T00860062  RH  085%=      5-min Rain = 0
KLA1 221041Z 33006KT 09/06 A3009 RMK A01 T00860062  RH  085%=      5-min Rain = 0
KLA1 221042Z 33005KT 09/06 A3009 RMK A01 T00860062  RH  085%=      5-min Rain = 0
KLA1 221043Z 33004KT 09/06 A3009 RMK A01 T00860062  RH  085%=      5-min Rain = 0
KLA1 221044Z 33005KT 09/06 A3009 RMK A01 T00860062  RH  085%=      5-min Rain = 0
KLA1 221045Z 33004KT 09/06 A3009 RMK A01 T00860062  RH  085%=      5-min Rain = 0
KLA1 221046Z 33004KT 09/06 A3009 RMK A01 T00860062  RH  085%=      5-min Rain = 0
KLA1 221047Z 33004KT 09/06 A3009 RMK A01 T00850062  RH  085%=      5-min Rain = 0
KLA1 221048Z 32004KT 09/06 A3009 RMK A01 T00850062  RH  085%=      5-min Rain = 0
KLA1 221049Z 34003KT 09/06 A3009 RMK A01 T00850062  RH  085%=      5-min Rain = 0
KLA1 221050Z 33003KT 09/06 A301 RMK A01 T00850062  RH  086%=      5-min Rain = 0
KLA1 221051Z 34004KT 08/06 A301 RMK A01 T00840062  RH  086%=      5-min Rain = 0
KLA1 221052Z 34003KT 08/06 A301 RMK A01 T00840062  RH  086%=      5-min Rain = 0
KLA1 221053Z 34004KT 08/06 A301 RMK A01 T00840062  RH  086%=      5-min Rain = 0
KLA1 221054Z 33003KT 08/06 A301 RMK A01 T00840062  RH  086%=      5-min Rain = 0
KLA1 221055Z 34004KT 08/06 A301 RMK A01 T00840061  RH  086%=      5-min Rain = 0
KLA1 221056Z 34004KT 08/06 A301 RMK A01 T00840062  RH  086%=      5-min Rain = 0
KLA1 221057Z 34004KT 08/06 A301 RMK A01 T00830061  RH  086%=      5-min Rain = 0
KLA1 221058Z 34005KT 08/06 A301 RMK A01 T00830061  RH  086%=      5-min Rain = 0
KLA1 221059Z 35005KT 08/06 A301 RMK A01 T00830062  RH  086%=      5-min Rain = 0
KLA1 221100Z 33005KT 08/06 A301 RMK A01 T00830061  RH  086%=      5-min Rain = 0
KLA1 221101Z 33004KT 08/06 A301 RMK A01 T00830062  RH  086%=      5-min Rain = 0
KLA1 221102Z 33004KT 08/06 A301 RMK A01 T00830062  RH  086%=      5-min Rain = 0
KLA1 221103Z 33003KT 08/06 A301 RMK A01 T00830061  RH  086%=      5-min Rain = 0
KLA1 221104Z 34003KT 08/06 A301 RMK A01 T00830062  RH  087%=      5-min Rain = 0
KLA1 221105Z 34005KT 08/06 A301 RMK A01 T00820061  RH  087%=      5-min Rain = 0
KLA1 221106Z 33004KT 08/06 A301 RMK A01 T00820062  RH  087%=      5-min Rain = 0
KLA1 221107Z 32004KT 08/06 A301 RMK A01 T00820061  RH  087%=      5-min Rain = 0
KLA1 221108Z 32003KT 08/06 A301 RMK A01 T00820062  RH  087%=      5-min Rain = 0
KLA1 221109Z 32003KT 08/06 A301 RMK A01 T00820062  RH  087%=      5-min Rain = 0
KLA1 221110Z 32003KT 08/06 A301 RMK A01 T00810062  RH  087%=      5-min Rain = 0
KLA1 221111Z 32002KT 08/06 A301 RMK A01 T00810062  RH  087%=      5-min Rain = 0
KLA1 221112Z 32004KT 08/06 A301 RMK A01 T00810062  RH  088%=      5-min Rain = 0
KLA1 221113Z 32003KT 08/06 A301 RMK A01 T00810062  RH  088%=      5-min Rain = 0
KLA1 221114Z 32004KT 08/06 A301 RMK A01 T00810062  RH  088%=      5-min Rain = 0
KLA1 221115Z 33005KT 08/06 A301 RMK A01 T00810062  RH  088%=      5-min Rain = 0
KLA1 221116Z 32004KT 08/06 A301 RMK A01 T00810062  RH  088%=      5-min Rain = 0
KLA1 221117Z 34005KT 08/06 A301 RMK A01 T00810062  RH  088%=      5-min Rain = 0
KLA1 221118Z 34004KT 08/06 A301 RMK A01 T00810062  RH  088%=      5-min Rain = 0
KLA1 221119Z 34005KT 08/06 A301 RMK A01 T00810061  RH  088%=      5-min Rain = 0
KLA1 221120Z 34004KT 08/06 A301 RMK A01 T00810062  RH  088%=      5-min Rain = 0
KLA1 221121Z 33004KT 08/06 A301 RMK A01 T00810062  RH  088%=      5-min Rain = 0
KLA1 221122Z 34003KT 08/06 A301 RMK A01 T00810062  RH  088%=      5-min Rain = 0
KLA1 221123Z 33004KT 08/06 A301 RMK A01 T00800061  RH  088%=      5-min Rain = 0
KLA1 221124Z 33004KT 08/06 A301 RMK A01 T00800062  RH  088%=      5-min Rain = 0
KLA1 221125Z 34006KT 08/06 A301 RMK A01 T00800062  RH  088%=      5-min Rain = 0
KLA1 221126Z 34004KT 08/06 A301 RMK A01 T00800061  RH  088%=      5-min Rain = 0
KLA1 221127Z 35004KT 08/06 A301 RMK A01 T00800061  RH  088%=      5-min Rain = 0
KLA1 221128Z 34004KT 08/06 A301 RMK A01 T00800062  RH  088%=      5-min Rain = 0
KLA1 221129Z 34004KT 08/06 A301 RMK A01 T00790061  RH  088%=      5-min Rain = 0
KLA1 221130Z 34004KT 08/06 A301 RMK A01 T00790061  RH  088%=      5-min Rain = 0
KLA1 221131Z 34004KT 08/06 A301 RMK A01 T00790062  RH  089%=      5-min Rain = 0
KLA1 221132Z 35005KT 08/06 A301 RMK A01 T00790062  RH  089%=      5-min Rain = 0
KLA1 221133Z 34005KT 08/06 A301 RMK A01 T00790062  RH  089%=      5-min Rain = 0
KLA1 221134Z 35005KT 08/06 A301 RMK A01 T00790061  RH  089%=      5-min Rain = 0
KLA1 221135Z 34004KT 08/06 A301 RMK A01 T00790062  RH  088%=      5-min Rain = 0
KLA1 221136Z 35004KT 08/06 A301 RMK A01 T00790061  RH  088%=      5-min Rain = 0
KLA1 221137Z 35004KT 08/06 A301 RMK A01 T00790061  RH  088%=      5-min Rain = 0
KLA1 221138Z 36004KT 08/06 A301 RMK A01 T00790061  RH  089%=      5-min Rain = 0
KLA1 221139Z 35003KT 08/06 A301 RMK A01 T00790061  RH  089%=      5-min Rain = 0
KLA1 221140Z 35004KT 08/06 A301 RMK A01 T00780061  RH  089%=      5-min Rain = 0
KLA1 221141Z 36004KT 08/06 A301 RMK A01 T00780061  RH  089%=      5-min Rain = 0
KLA1 221142Z 35004KT 08/06 A301 RMK A01 T00780061  RH  089%=      5-min Rain = 0
KLA1 221143Z 35004KT 08/06 A301 RMK A01 T00770061  RH  089%=      5-min Rain = 0
KLA1 221144Z 35004KT 08/06 A301 RMK A01 T00770061  RH  090%=      5-min Rain = 0
KLA1 221145Z 34004KT 08/06 A301 RMK A01 T00770061  RH  090%=      5-min Rain = 0
KLA1 221146Z 34004KT 08/06 A301 RMK A01 T00770061  RH  090%=      5-min Rain = 0
KLA1 221147Z 34005KT 08/06 A301 RMK A01 T00760061  RH  090%=      5-min Rain = 0
KLA1 221148Z 34004KT 08/06 A301 RMK A01 T00760061  RH  090%=      5-min Rain = 0
KLA1 221149Z 33003KT 08/06 A301 RMK A01 T00760061  RH  090%=      5-min Rain = 0
KLA1 221150Z 33003KT 08/06 A301 RMK A01 T00760061  RH  090%=      5-min Rain = 0
KLA1 221151Z 34004KT 08/06 A301 RMK A01 T00770061  RH  090%=      5-min Rain = 0
KLA1 221152Z 33003KT 08/06 A301 RMK A01 T00770061  RH  090%=      5-min Rain = 0
KLA1 221153Z 33003KT 08/06 A301 RMK A01 T00760061  RH  090%=      5-min Rain = 0
KLA1 221154Z 34003KT 08/06 A301 RMK A01 T00770061  RH  090%=      5-min Rain = 0
KLA1 221155Z 33003KT 08/06 A301 RMK A01 T00760061  RH  090%=      5-min Rain = 0
KLA1 221156Z 34003KT 08/06 A301 RMK A01 T00760060  RH  090%=      5-min Rain = 0
KLA1 221157Z 34003KT 08/06 A301 RMK A01 T00770061  RH  090%=      5-min Rain = 0
KLA1 221158Z 34004KT 08/06 A301 RMK A01 T00760061  RH  090%=      5-min Rain = 0
KLA1 221159Z 34004KT 08/06 A301 RMK A01 T00760061  RH  090%=      5-min Rain = 0
KLA1 221200Z 35004KT 08/06 A301 RMK A01 T00760061  RH  090%=      5-min Rain = 0
KLA1 221201Z 35004KT 08/06 A301 RMK A01 T00770061  RH  090%=      5-min Rain = 0
KLA1 221202Z 34003KT 08/06 A301 RMK A01 T00770061  RH  090%=      5-min Rain = 0
KLA1 221203Z 34005KT 08/06 A301 RMK A01 T00770061  RH  090%=      5-min Rain = 0
KLA1 221204Z 34004KT 08/06 A301 RMK A01 T00760061  RH  090%=      5-min Rain = 0
KLA1 221205Z 34004KT 08/06 A301 RMK A01 T00760061  RH  090%=      5-min Rain = 0
KLA1 221206Z 35004KT 08/06 A301 RMK A01 T00760060  RH  090%=      5-min Rain = 0
KLA1 221207Z 35003KT 08/06 A3011 RMK A01 T00760061  RH  090%=      5-min Rain = 0
KLA1 221208Z 35003KT 08/06 A3011 RMK A01 T00750060  RH  090%=      5-min Rain = 0
KLA1 221209Z 35004KT 08/06 A3011 RMK A01 T00750060  RH  090%=      5-min Rain = 0
KLA1 221210Z 35003KT 08/06 A3011 RMK A01 T00750061  RH  090%=      5-min Rain = 0
KLA1 221211Z 35003KT 08/06 A3011 RMK A01 T00750060  RH  090%=      5-min Rain = 0
KLA1 221212Z 35003KT 07/06 A3011 RMK A01 T00740060  RH  090%=      5-min Rain = 0
KLA1 221213Z 35004KT 07/06 A3011 RMK A01 T00740060  RH  091%=      5-min Rain = 0
KLA1 221214Z 35003KT 07/06 A3011 RMK A01 T00740060  RH  091%=      5-min Rain = 0
KLA1 221215Z 35003KT 07/06 A3011 RMK A01 T00740060  RH  091%=      5-min Rain = 0
KLA1 221216Z 35003KT 07/06 A3011 RMK A01 T00740060  RH  091%=      5-min Rain = 0
KLA1 221217Z 34004KT 07/06 A3011 RMK A01 T00740060  RH  091%=      5-min Rain = 0
KLA1 221218Z 35003KT 07/06 A3011 RMK A01 T00740061  RH  091%=      5-min Rain = 0
KLA1 221219Z 35003KT 07/06 A3011 RMK A01 T00740060  RH  091%=      5-min Rain = 0
KLA1 221220Z 35003KT 07/06 A3011 RMK A01 T00740060  RH  091%=      5-min Rain = 0
KLA1 221221Z 35003KT 07/06 A3011 RMK A01 T00740060  RH  091%=      5-min Rain = 0
KLA1 221222Z 34003KT 07/06 A3011 RMK A01 T00730060  RH  091%=      5-min Rain = 0
KLA1 221223Z 34003KT 07/06 A3011 RMK A01 T00740060  RH  091%=      5-min Rain = 0
KLA1 221224Z 34003KT 07/06 A3011 RMK A01 T00730060  RH  091%=      5-min Rain = 0
KLA1 221225Z 35004KT 07/06 A3011 RMK A01 T00730060  RH  091%=      5-min Rain = 0
KLA1 221226Z 35004KT 07/06 A3011 RMK A01 T00730060  RH  091%=      5-min Rain = 0
KLA1 221227Z 35004KT 07/06 A3011 RMK A01 T00730059  RH  091%=      5-min Rain = 0
KLA1 221228Z 35003KT 07/06 A3011 RMK A01 T00730060  RH  091%=      5-min Rain = 0
KLA1 221229Z 35003KT 07/06 A3011 RMK A01 T00730059  RH  091%=      5-min Rain = 0
KLA1 221230Z 00002KT 07/06 A3011 RMK A01 T00730059  RH  091%=      5-min Rain = 0
KLA1 221231Z 35003KT 07/06 A3011 RMK A01 T00720059  RH  091%=      5-min Rain = 0
KLA1 221232Z 34002KT 07/06 A3011 RMK A01 T00720059  RH  091%=      5-min Rain = 0
KLA1 221233Z 35002KT 07/06 A3011 RMK A01 T00730060  RH  092%=      5-min Rain = 0
KLA1 221234Z 34002KT 07/06 A3011 RMK A01 T00720060  RH  092%=      5-min Rain = 0
KLA1 221235Z 35002KT 07/06 A3011 RMK A01 T00730060  RH  092%=      5-min Rain = 0
KLA1 221236Z 34002KT 07/06 A3012 RMK A01 T00720060  RH  092%=      5-min Rain = 0
KLA1 221237Z 36002KT 07/06 A3012 RMK A01 T00730060  RH  092%=      5-min Rain = 0
KLA1 221238Z 35002KT 07/06 A3012 RMK A01 T00720059  RH  092%=      5-min Rain = 0
KLA1 221239Z 35003KT 07/06 A3012 RMK A01 T00720059  RH  092%=      5-min Rain = 0
KLA1 221240Z 34003KT 07/06 A3011 RMK A01 T00720059  RH  092%=      5-min Rain = 0
KLA1 221241Z 34003KT 07/06 A3012 RMK A01 T00720059  RH  092%=      5-min Rain = 0
KLA1 221242Z 35003KT 07/06 A3012 RMK A01 T00710059  RH  092%=      5-min Rain = 0
KLA1 221243Z 35003KT 07/06 A3012 RMK A01 T00720059  RH  092%=      5-min Rain = 0
KLA1 221244Z 34003KT 07/06 A3012 RMK A01 T00710059  RH  092%=      5-min Rain = 0
KLA1 221245Z 34004KT 07/06 A3012 RMK A01 T00710059  RH  092%=      5-min Rain = 0
KLA1 221246Z 35003KT 07/06 A3011 RMK A01 T00710059  RH  092%=      5-min Rain = 0
KLA1 221247Z 34004KT 07/06 A3011 RMK A01 T00710059  RH  092%=      5-min Rain = 0
KLA1 221248Z 34004KT 07/06 A3012 RMK A01 T00700059  RH  093%=      5-min Rain = 0
KLA1 221249Z 34004KT 07/06 A3012 RMK A01 T00700059  RH  093%=      5-min Rain = 0
KLA1 221250Z 35004KT 07/06 A3012 RMK A01 T00700059  RH  093%=      5-min Rain = 0
KLA1 221251Z 34004KT 07/06 A3012 RMK A01 T00710059  RH  093%=      5-min Rain = 0
KLA1 221252Z 34004KT 07/06 A3012 RMK A01 T00700059  RH  093%=      5-min Rain = 0
KLA1 221253Z 34003KT 07/06 A3012 RMK A01 T00710059  RH  093%=      5-min Rain = 0
KLA1 221254Z 35004KT 07/06 A3012 RMK A01 T00710059  RH  092%=      5-min Rain = 0
KLA1 221255Z 33004KT 07/06 A3012 RMK A01 T00710059  RH  092%=      5-min Rain = 0
KLA1 221256Z 35003KT 07/06 A3012 RMK A01 T00710060  RH  092%=      5-min Rain = 0
KLA1 221257Z 34003KT 07/06 A3012 RMK A01 T00710059  RH  092%=      5-min Rain = 0
KLA1 221258Z 33003KT 07/06 A3012 RMK A01 T00710059  RH  092%=      5-min Rain = 0
KLA1 221259Z 33003KT 07/06 A3012 RMK A01 T00720059  RH  092%=      5-min Rain = 0
KLA1 221300Z 33003KT 07/06 A3012 RMK A01 T00720059  RH  092%=      5-min Rain = 0
KLA1 221301Z 35003KT 07/06 A3012 RMK A01 T00710059  RH  092%=      5-min Rain = 0
KLA1 221302Z 34002KT 07/06 A3012 RMK A01 T00710059  RH  092%=      5-min Rain = 0
KLA1 221303Z 34002KT 07/06 A3012 RMK A01 T00710059  RH  092%=      5-min Rain = 0
KLA1 221304Z 34003KT 07/06 A3012 RMK A01 T00720059  RH  092%=      5-min Rain = 0
KLA1 221305Z 33002KT 07/06 A3012 RMK A01 T00720059  RH  091%=      5-min Rain = 0
KLA1 221306Z 33002KT 07/06 A3013 RMK A01 T00720058  RH  091%=      5-min Rain = 0
KLA1 221307Z 34002KT 07/06 A3013 RMK A01 T00720058  RH  091%=      5-min Rain = 0
KLA1 221308Z 35001KT 07/06 A3013 RMK A01 T00710058  RH  091%=      5-min Rain = 0
KLA1 221309Z 33002KT 07/06 A3013 RMK A01 T00710058  RH  091%=      5-min Rain = 0
KLA1 221310Z 34001KT 07/06 A3013 RMK A01 T00710058  RH  091%=      5-min Rain = 0
KLA1 221311Z 35002KT 07/06 A3013 RMK A01 T00710058  RH  091%=      5-min Rain = 0
KLA1 221312Z 34002KT 07/06 A3013 RMK A01 T00700058  RH  092%=      5-min Rain = 0
KLA1 221313Z 33002KT 07/06 A3013 RMK A01 T00710058  RH  091%=      5-min Rain = 0
KLA1 221314Z 34001KT 07/06 A3013 RMK A01 T00690057  RH  092%=      5-min Rain = 0
KLA1 221315Z 34001KT 07/06 A3013 RMK A01 T00690056  RH  092%=      5-min Rain = 0
KLA1 221316Z 34001KT 07/06 A3013 RMK A01 T00680056  RH  092%=      5-min Rain = 0
KLA1 221317Z 35001KT 07/06 A3013 RMK A01 T00680055  RH  092%=      5-min Rain = 0
KLA1 221318Z 34001KT 07/06 A3013 RMK A01 T00670055  RH  092%=      5-min Rain = 0
KLA1 221319Z 35000KT 07/06 A3013 RMK A01 T00660055  RH  092%=      5-min Rain = 0
KLA1 221320Z 36001KT 07/06 A3013 RMK A01 T00660055  RH  093%=      5-min Rain = 0
KLA1 221321Z 35002KT 07/05 A3013 RMK A01 T00650053  RH  092%=      5-min Rain = 0
KLA1 221322Z 35002KT 06/05 A3013 RMK A01 T00640052  RH  092%=      5-min Rain = 0
KLA1 221323Z 34002KT 06/05 A3013 RMK A01 T00630051  RH  093%=      5-min Rain = 0
KLA1 221324Z 35002KT 06/05 A3013 RMK A01 T00620051  RH  093%=      5-min Rain = 0
KLA1 221325Z 35002KT 06/05 A3013 RMK A01 T00610051  RH  093%=      5-min Rain = 0
KLA1 221326Z 34002KT 06/05 A3013 RMK A01 T00600050  RH  094%=      5-min Rain = 0
KLA1 221327Z 34001KT 06/05 A3013 RMK A01 T00590050  RH  094%=      5-min Rain = 0
KLA1 221328Z 31001KT 06/05 A3013 RMK A01 T00580050  RH  095%=      5-min Rain = 0
KLA1 221329Z 28001KT 06/05 A3014 RMK A01 T00570050  RH  095%=      5-min Rain = 0
KLA1 221330Z 30001KT 06/05 A3014 RMK A01 T00570050  RH  096%=      5-min Rain = 0
KLA1 221331Z 30002KT 06/05 A3014 RMK A01 T00560051  RH  096%=      5-min Rain = 0
KLA1 221332Z 30002KT 06/05 A3014 RMK A01 T00560054  RH  098%=      5-min Rain = 0
KLA1 221333Z 30002KT 06/06 A3014 RMK A01 T00570055  RH  098%=      5-min Rain = 0
KLA1 221334Z 32002KT 06/06 A3014 RMK A01 T00580056  RH  099%=      5-min Rain = 0
KLA1 221335Z 31001KT 06/06 A3014 RMK A01 T00590057  RH  099%=      5-min Rain = 0
KLA1 221336Z 30002KT 06/06 A3014 RMK A01 T00590057  RH  099%=      5-min Rain = 0
KLA1 221337Z 30001KT 06/06 A3014 RMK A01 T00590057  RH  099%=      5-min Rain = 0
KLA1 221338Z 30002KT 06/06 A3014 RMK A01 T00590058  RH  099%=      5-min Rain = 0
KLA1 221339Z 29002KT 06/06 A3014 RMK A01 T00590057  RH  098%=      5-min Rain = 0
KLA1 221340Z 31003KT 06/06 A3014 RMK A01 T00590056  RH  098%=      5-min Rain = 0
KLA1 221341Z 30002KT 06/06 A3014 RMK A01 T00590056  RH  098%=      5-min Rain = 0
KLA1 221342Z 29001KT 06/06 A3014 RMK A01 T00580056  RH  098%=      5-min Rain = 0
KLA1 221343Z 31002KT 06/06 A3014 RMK A01 T00580056  RH  099%=      5-min Rain = 0
KLA1 221344Z 31001KT 06/06 A3014 RMK A01 T00580056  RH  099%=      5-min Rain = 0
KLA1 221345Z 32003KT 06/06 A3014 RMK A01 T00590057  RH  099%=      5-min Rain = 0
KLA1 221346Z 32002KT 06/06 A3014 RMK A01 T00600058  RH  099%=      5-min Rain = 0
KLA1 221347Z 32004KT 06/06 A3014 RMK A01 T00620061  RH  100%=      5-min Rain = 0
KLA1 221348Z 32003KT 07/06 A3014 RMK A01 T00650064  RH  100%=      5-min Rain = 0
KLA1 221349Z 32004KT 07/07 A3014 RMK A01 T00670065  RH  099%=      5-min Rain = 0
KLA1 221350Z 32004KT 07/07 A3014 RMK A01 T00700066  RH  097%=      5-min Rain = 0
KLA1 221351Z 34002KT 07/07 A3014 RMK A01 T00710065  RH  095%=      5-min Rain = 0
KLA1 221352Z 36003KT 07/06 A3014 RMK A01 T00730064  RH  094%=      5-min Rain = 0
KLA1 221353Z 35004KT 07/06 A3015 RMK A01 T00740063  RH  092%=      5-min Rain = 0
KLA1 221354Z 35003KT 08/06 A3015 RMK A01 T00750062  RH  091%=      5-min Rain = 0
KLA1 221355Z 36004KT 08/06 A3015 RMK A01 T00760062  RH  091%=      5-min Rain = 0
KLA1 221356Z 35004KT 08/06 A3015 RMK A01 T00770061  RH  090%=      5-min Rain = 0
KLA1 221357Z 35004KT 08/06 A3015 RMK A01 T00780061  RH  089%=      5-min Rain = 0
KLA1 221358Z 36005KT 08/06 A3015 RMK A01 T00790061  RH  088%=      5-min Rain = 0
KLA1 221359Z 36005KT 08/06 A3015 RMK A01 T00790060  RH  087%=      5-min Rain = 0
KLA1 221400Z 36005KT 08/06 A3015 RMK A01 T00800060  RH  087%=      5-min Rain = 0
KLA1 221401Z 35004KT 08/06 A3015 RMK A01 T00800060  RH  087%=      5-min Rain = 0
KLA1 221402Z 35005KT 08/06 A3015 RMK A01 T00810060  RH  087%=      5-min Rain = 0
KLA1 221403Z 35006KT 08/06 A3015 RMK A01 T00810060  RH  086%=      5-min Rain = 0
KLA1 221404Z 34005KT 08/06 A3015 RMK A01 T00820060  RH  086%=      5-min Rain = 0
KLA1 221405Z 35005KT 08/06 A3015 RMK A01 T00830060  RH  085%=      5-min Rain = 0
KLA1 221406Z 35005KT 08/06 A3015 RMK A01 T00830060  RH  085%=      5-min Rain = 0
KLA1 221407Z 33004KT 08/06 A3015 RMK A01 T00840060  RH  085%=      5-min Rain = 0
KLA1 221408Z 34004KT 08/06 A3015 RMK A01 T00840060  RH  085%=      5-min Rain = 0
KLA1 221409Z 35003KT 08/06 A3015 RMK A01 T00840059  RH  084%=      5-min Rain = 0
KLA1 221410Z 33002KT 08/06 A3015 RMK A01 T00840059  RH  084%=      5-min Rain = 0
KLA1 221411Z 34003KT 09/06 A3015 RMK A01 T00850060  RH  084%=      5-min Rain = 0
KLA1 221412Z 35004KT 09/06 A3015 RMK A01 T00860060  RH  084%=      5-min Rain = 0
KLA1 221413Z 35004KT 09/06 A3015 RMK A01 T00860059  RH  083%=      5-min Rain = 0
KLA1 221414Z 33004KT 09/06 A3015 RMK A01 T00860059  RH  083%=      5-min Rain = 0
KLA1 221415Z 34004KT 09/06 A3016 RMK A01 T00860059  RH  083%=      5-min Rain = 0
KLA1 221416Z 32005KT 09/06 A3016 RMK A01 T00860059  RH  083%=      5-min Rain = 0
KLA1 221417Z 34004KT 09/06 A3016 RMK A01 T00860058  RH  082%=      5-min Rain = 0
KLA1 221418Z 35005KT 09/06 A3016 RMK A01 T00860058  RH  083%=      5-min Rain = 0
KLA1 221419Z 34005KT 09/06 A3015 RMK A01 T00870058  RH  082%=      5-min Rain = 0
KLA1 221420Z 35006KT 09/06 A3015 RMK A01 T00880058  RH  082%=      5-min Rain = 0
KLA1 221421Z 34005KT 09/06 A3015 RMK A01 T00880058  RH  081%=      5-min Rain = 0
KLA1 221422Z 35006KT 09/06 A3015 RMK A01 T00880058  RH  081%=      5-min Rain = 0
KLA1 221423Z 35006KT 09/06 A3015 RMK A01 T00890058  RH  081%=      5-min Rain = 0
KLA1 221424Z 35009KT 09/06 A3015 RMK A01 T00890057  RH  081%=      5-min Rain = 0
KLA1 221425Z 35008KT 09/06 A3016 RMK A01 T00890057  RH  080%=      5-min Rain = 0
KLA1 221426Z 35007KT 09/06 A3015 RMK A01 T00880056  RH  080%=      5-min Rain = 0
KLA1 221427Z 34008KT 09/06 A3015 RMK A01 T00880057  RH  081%=      5-min Rain = 0
KLA1 221428Z 35006KT 09/06 A3015 RMK A01 T00880057  RH  081%=      5-min Rain = 0
KLA1 221429Z 35007KT 09/06 A3015 RMK A01 T00880057  RH  081%=      5-min Rain = 0
KLA1 221430Z 35008KT 09/06 A3015 RMK A01 T00890057  RH  080%=      5-min Rain = 0
KLA1 221431Z 34008KT 09/06 A3016 RMK A01 T00890056  RH  080%=      5-min Rain = 0
KLA1 221432Z 35007KT 09/06 A3016 RMK A01 T00890056  RH  080%=      5-min Rain = 0
KLA1 221433Z 35007KT 09/06 A3016 RMK A01 T00890057  RH  080%=      5-min Rain = 0
KLA1 221434Z 34009KT 09/06 A3015 RMK A01 T00890057  RH  080%=      5-min Rain = 0
KLA1 221435Z 35008KT 09/06 A3016 RMK A01 T00890056  RH  080%=      5-min Rain = 0
KLA1 221436Z 34008KT 09/06 A3016 RMK A01 T00890056  RH  080%=      5-min Rain = 0
KLA1 221437Z 35005KT 09/06 A3016 RMK A01 T00890057  RH  080%=      5-min Rain = 0
KLA1 221438Z 35009KT 09/06 A3016 RMK A01 T00900058  RH  080%=      5-min Rain = 0
KLA1 221439Z 35008KT 09/06 A3016 RMK A01 T00900057  RH  080%=      5-min Rain = 0
KLA1 221440Z 35007KT 09/06 A3016 RMK A01 T00900057  RH  079%=      5-min Rain = 0
KLA1 221441Z 35007KT 09/06 A3016 RMK A01 T00900057  RH  080%=      5-min Rain = 0
KLA1 221442Z 35008KT 09/06 A3016 RMK A01 T00900057  RH  080%=      5-min Rain = 0
KLA1 221443Z 35007KT 09/06 A3016 RMK A01 T00910058  RH  080%=      5-min Rain = 0
KLA1 221444Z 35009KT 09/06 A3016 RMK A01 T00910057  RH  080%=      5-min Rain = 0
KLA1 221445Z 34008KT 09/06 A3016 RMK A01 T00910057  RH  080%=      5-min Rain = 0
KLA1 221446Z 36007KT 09/06 A3016 RMK A01 T00910058  RH  080%=      5-min Rain = 0
KLA1 221447Z 34008KT 09/06 A3016 RMK A01 T00910058  RH  080%=      5-min Rain = 0
KLA1 221448Z 35006KT 09/06 A3016 RMK A01 T00920059  RH  080%=      5-min Rain = 0
KLA1 221449Z 34009KT 09/06 A3016 RMK A01 T00940059  RH  079%=      5-min Rain = 0
KLA1 221450Z 34007KT 09/06 A3016 RMK A01 T00940058  RH  078%=      5-min Rain = 0
KLA1 221451Z 35006KT 09/06 A3017 RMK A01 T00940059  RH  079%=      5-min Rain = 0
KLA1 221452Z 35008KT 10/06 A3017 RMK A01 T00950059  RH  079%=      5-min Rain = 0
KLA1 221453Z 32005KT 10/06 A3017 RMK A01 T00950059  RH  078%=      5-min Rain = 0
KLA1 221454Z 34006KT 10/06 A3017 RMK A01 T00960059  RH  078%=      5-min Rain = 0
KLA1 221455Z 34007KT 10/06 A3017 RMK A01 T00970060  RH  078%=      5-min Rain = 0
KLA1 221456Z 33005KT 10/06 A3017 RMK A01 T00980060  RH  077%=      5-min Rain = 0
KLA1 221457Z 33005KT 10/06 A3017 RMK A01 T00990061  RH  077%=      5-min Rain = 0
KLA1 221458Z 33006KT 10/06 A3017 RMK A01 T01000061  RH  076%=      5-min Rain = 0
KLA1 221459Z 34009KT 10/06 A3017 RMK A01 T01010060  RH  076%=      5-min Rain = 0
KLA1 221500Z 35009KT 10/06 A3017 RMK A01 T01000060  RH  076%=      5-min Rain = 0
KLA1 221501Z 35009KT 10/06 A3017 RMK A01 T01000060  RH  076%=      5-min Rain = 0
KLA1 221502Z 36008KT 10/06 A3017 RMK A01 T01000060  RH  076%=      5-min Rain = 0
KLA1 221503Z 35008KT 10/06 A3017 RMK A01 T01010060  RH  076%=      5-min Rain = 0
KLA1 221504Z 35009KT 10/06 A3017 RMK A01 T01000059  RH  076%=      5-min Rain = 0
KLA1 221505Z 35010KT 10/06 A3017 RMK A01 T01010060  RH  076%=      5-min Rain = 0
KLA1 221506Z 34010KT 10/06 A3016 RMK A01 T01020059  RH  075%=      5-min Rain = 0
KLA1 221507Z 34009KT 10/06 A3016 RMK A01 T01020060  RH  075%=      5-min Rain = 0
KLA1 221508Z 35008KT 10/06 A3016 RMK A01 T01030061  RH  075%=      5-min Rain = 0
KLA1 221509Z 35008KT 11/06 A3016 RMK A01 T01050061  RH  074%=      5-min Rain = 0
KLA1 221510Z 35008KT 11/06 A3016 RMK A01 T01060061  RH  074%=      5-min Rain = 0
KLA1 221511Z 35010KT 11/06 A3017 RMK A01 T01070061  RH  073%=      5-min Rain = 0
KLA1 221512Z 35008KT 11/06 A3017 RMK A01 T01080061  RH  073%=      5-min Rain = 0
KLA1 221513Z 33006KT 11/06 A3016 RMK A01 T01090061  RH  072%=      5-min Rain = 0
KLA1 221514Z 35007KT 11/06 A3016 RMK A01 T01090061  RH  072%=      5-min Rain = 0
KLA1 221515Z 33006KT 11/06 A3016 RMK A01 T01100061  RH  072%=      5-min Rain = 0
KLA1 221516Z 32008KT 11/06 A3016 RMK A01 T01110062  RH  072%=      5-min Rain = 0
KLA1 221517Z 33008KT 11/06 A3016 RMK A01 T01120062  RH  071%=      5-min Rain = 0
KLA1 221518Z 33006KT 11/06 A3016 RMK A01 T01120061  RH  071%=      5-min Rain = 0
KLA1 221519Z 35006KT 11/06 A3017 RMK A01 T01120061  RH  071%=      5-min Rain = 0
KLA1 221520Z 35007KT 11/06 A3017 RMK A01 T01120062  RH  071%=      5-min Rain = 0
KLA1 221521Z 34007KT 11/06 A3017 RMK A01 T01140062  RH  070%=      5-min Rain = 0
KLA1 221522Z 35010KT 12/06 A3017 RMK A01 T01150061  RH  069%=      5-min Rain = 0
KLA1 221523Z 35011KT 11/06 A3017 RMK A01 T01140059  RH  069%=      5-min Rain = 0
KLA1 221524Z 35009KT 11/06 A3017 RMK A01 T01120059  RH  070%=      5-min Rain = 0
KLA1 221525Z 35009KT 11/06 A3017 RMK A01 T01120059  RH  070%=      5-min Rain = 0
KLA1 221526Z 33007KT 11/06 A3017 RMK A01 T01120059  RH  070%=      5-min Rain = 0
KLA1 221527Z 36009KT 11/06 A3017 RMK A01 T01130060  RH  070%=      5-min Rain = 0
KLA1 221528Z 35009G14KT 11/06 A3017 RMK A01 T01140059  RH  069%=      5-min Rain = 0
KLA1 221529Z 36009G14KT 11/06 A3017 RMK A01 T01130059  RH  069%=      5-min Rain = 0
KLA1 221530Z 36008KT 11/06 A3017 RMK A01 T01130059  RH  069%=      5-min Rain = 0
KLA1 221531Z 35011KT 11/06 A3017 RMK A01 T01140059  RH  069%=      5-min Rain = 0
KLA1 221532Z 34010KT 11/06 A3017 RMK A01 T01140059  RH  069%=      5-min Rain = 0
KLA1 221533Z 36009KT 11/06 A3017 RMK A01 T01130058  RH  069%=      5-min Rain = 0
KLA1 221534Z 35008KT 11/06 A3017 RMK A01 T01130059  RH  069%=      5-min Rain = 0
KLA1 221535Z 35011KT 11/06 A3017 RMK A01 T01140058  RH  069%=      5-min Rain = 0
KLA1 221536Z 35010KT 11/06 A3017 RMK A01 T01130058  RH  069%=      5-min Rain = 0
KLA1 221537Z 36012KT 11/06 A3017 RMK A01 T01130058  RH  069%=      5-min Rain = 0
KLA1 221538Z 36010KT 11/06 A3017 RMK A01 T01130058  RH  069%=      5-min Rain = 0
KLA1 221539Z 35011KT 11/06 A3017 RMK A01 T01130058  RH  069%=      5-min Rain = 0
KLA1 221540Z 35011KT 11/06 A3017 RMK A01 T01130058  RH  069%=      5-min Rain = 0
KLA1 221541Z 00011KT 11/06 A3017 RMK A01 T01130058  RH  069%=      5-min Rain = 0
KLA1 221542Z 36013KT 11/06 A3017 RMK A01 T01130058  RH  069%=      5-min Rain = 0
KLA1 221543Z 35011KT 11/06 A3017 RMK A01 T01130058  RH  069%=      5-min Rain = 0
KLA1 221544Z 36010KT 11/06 A3017 RMK A01 T01140059  RH  069%=      5-min Rain = 0
KLA1 221545Z 00012KT 12/06 A3017 RMK A01 T01150058  RH  068%=      5-min Rain = 0
KLA1 221546Z 35012KT 12/06 A3017 RMK A01 T01150058  RH  068%=      5-min Rain = 0
KLA1 221547Z 35010KT 11/06 A3017 RMK A01 T01130058  RH  069%=      5-min Rain = 0
KLA1 221548Z 35010KT 11/06 A3017 RMK A01 T01130058  RH  069%=      5-min Rain = 0
KLA1 221549Z 35011G16KT 11/06 A3017 RMK A01 T01140058  RH  069%=      5-min Rain = 0
KLA1 221550Z 34013KT 11/06 A3017 RMK A01 T01140058  RH  068%=      5-min Rain = 0
KLA1 221551Z 35010KT 11/06 A3017 RMK A01 T01130057  RH  068%=      5-min Rain = 0
KLA1 221552Z 33008KT 11/06 A3017 RMK A01 T01130059  RH  069%=      5-min Rain = 0
KLA1 221553Z 34011KT 12/06 A3017 RMK A01 T01150059  RH  068%=      5-min Rain = 0
KLA1 221554Z 35009KT 12/06 A3017 RMK A01 T01150058  RH  068%=      5-min Rain = 0
KLA1 221555Z 34008KT 12/06 A3017 RMK A01 T01150059  RH  068%=      5-min Rain = 0
KLA1 221556Z 32009KT 12/06 A3017 RMK A01 T01170059  RH  068%=      5-min Rain = 0
KLA1 221557Z 34008KT 12/06 A3017 RMK A01 T01170059  RH  068%=      5-min Rain = 0
KLA1 221558Z 32008KT 12/06 A3017 RMK A01 T01180060  RH  067%=      5-min Rain = 0
KLA1 221559Z 31010KT 12/06 A3017 RMK A01 T01180059  RH  067%=      5-min Rain = 0
KLA1 221600Z 31010KT 12/06 A3017 RMK A01 T01180058  RH  067%=      5-min Rain = 0
KLA1 221601Z 34007KT 12/06 A3018 RMK A01 T01170060  RH  068%=      5-min Rain = 0
KLA1 221602Z 36010KT 12/06 A3018 RMK A01 T01180059  RH  067%=      5-min Rain = 0
KLA1 221603Z 35010KT 12/06 A3018 RMK A01 T01170058  RH  067%=      5-min Rain = 0
KLA1 221604Z 35011KT 12/06 A3018 RMK A01 T01150058  RH  068%=      5-min Rain = 0
KLA1 221605Z 35011KT 11/06 A3018 RMK A01 T01140058  RH  069%=      5-min Rain = 0
KLA1 221606Z 36009KT 12/06 A3018 RMK A01 T01150059  RH  069%=      5-min Rain = 0
KLA1 221607Z 36013KT 12/06 A3018 RMK A01 T01160060  RH  068%=      5-min Rain = 0
KLA1 221608Z 35010KT 12/06 A3018 RMK A01 T01160059  RH  068%=      5-min Rain = 0
KLA1 221609Z 36014KT 12/06 A3018 RMK A01 T01150059  RH  068%=      5-min Rain = 0
KLA1 221610Z 00011G16KT 11/06 A3018 RMK A01 T01140058  RH  068%=      5-min Rain = 0
KLA1 221611Z 35011KT 11/06 A3018 RMK A01 T01130058  RH  069%=      5-min Rain = 0
KLA1 221612Z 35009KT 11/06 A3018 RMK A01 T01130059  RH  069%=      5-min Rain = 0
KLA1 221613Z 35011KT 11/06 A3018 RMK A01 T01140060  RH  069%=      5-min Rain = 0
KLA1 221614Z 35011KT 12/06 A3018 RMK A01 T01150058  RH  068%=      5-min Rain = 0
KLA1 221615Z 35010G16KT 11/06 A3018 RMK A01 T01140059  RH  069%=      5-min Rain = 0
KLA1 221616Z 35011KT 11/06 A3018 RMK A01 T01140059  RH  069%=      5-min Rain = 0
KLA1 221617Z 35010G15KT 12/06 A3018 RMK A01 T01150058  RH  068%=      5-min Rain = 0
KLA1 221618Z 36011KT 12/06 A3018 RMK A01 T01150059  RH  068%=      5-min Rain = 0
KLA1 221619Z 35010KT 11/06 A3018 RMK A01 T01140058  RH  068%=      5-min Rain = 0
KLA1 221620Z 00010KT 11/06 A3018 RMK A01 T01140058  RH  069%=      5-min Rain = 0
KLA1 221621Z 36011KT 11/06 A3018 RMK A01 T01140058  RH  069%=      5-min Rain = 0
KLA1 221622Z 35009KT 11/06 A3018 RMK A01 T01130057  RH  068%=      5-min Rain = 0
KLA1 221623Z 00009KT 11/06 A3018 RMK A01 T01130058  RH  069%=      5-min Rain = 0
KLA1 221624Z 35009KT 11/06 A3018 RMK A01 T01140058  RH  068%=      5-min Rain = 0
KLA1 221625Z 36010KT 12/06 A3018 RMK A01 T01150058  RH  068%=      5-min Rain = 0
KLA1 221626Z 36008KT 11/06 A3018 RMK A01 T01140057  RH  068%=      5-min Rain = 0
KLA1 221627Z 36010KT 11/06 A3018 RMK A01 T01140058  RH  068%=      5-min Rain = 0
KLA1 221628Z 35009KT 11/06 A3018 RMK A01 T01140058  RH  068%=      5-min Rain = 0
KLA1 221629Z 00009KT 11/06 A3018 RMK A01 T01140058  RH  068%=      5-min Rain = 0
KLA1 221630Z 34009KT 11/06 A3018 RMK A01 T01130057  RH  068%=      5-min Rain = 0
KLA1 221631Z 36008KT 11/06 A3018 RMK A01 T01120057  RH  069%=      5-min Rain = 0
KLA1 221632Z 34009KT 11/06 A3018 RMK A01 T01130058  RH  069%=      5-min Rain = 0
KLA1 221633Z 35010KT 11/06 A3018 RMK A01 T01140058  RH  068%=      5-min Rain = 0
KLA1 221634Z 35009KT 11/06 A3018 RMK A01 T01130057  RH  069%=      5-min Rain = 0
KLA1 221635Z 00009KT 11/06 A3018 RMK A01 T01130058  RH  069%=      5-min Rain = 0
KLA1 221636Z 35007KT 11/06 A3018 RMK A01 T01130057  RH  068%=      5-min Rain = 0
KLA1 221637Z 01009KT 11/06 A3018 RMK A01 T01130058  RH  069%=      5-min Rain = 0
KLA1 221638Z 35010KT 11/06 A3018 RMK A01 T01130058  RH  069%=      5-min Rain = 0
KLA1 221639Z 00010KT 11/06 A3018 RMK A01 T01130057  RH  068%=      5-min Rain = 0
KLA1 221640Z 35013KT 11/06 A3018 RMK A01 T01110056  RH  069%=      5-min Rain = 0
KLA1 221641Z 36010KT 11/06 A3018 RMK A01 T01110057  RH  069%=      5-min Rain = 0
KLA1 221642Z 36007KT 11/06 A3018 RMK A01 T01120058  RH  069%=      5-min Rain = 0
KLA1 221643Z 36008KT 11/06 A3018 RMK A01 T01140059  RH  069%=      5-min Rain = 0
KLA1 221644Z 35010KT 12/06 A3018 RMK A01 T01150058  RH  068%=      5-min Rain = 0
KLA1 221645Z 35014KT 12/06 A3018 RMK A01 T01150057  RH  068%=      5-min Rain = 0
KLA1 221646Z 35012KT 11/06 A3018 RMK A01 T01120056  RH  068%=      5-min Rain = 0
KLA1 221647Z 00011KT 11/06 A3018 RMK A01 T01110057  RH  069%=      5-min Rain = 0
KLA1 221648Z 01011G16KT 11/06 A3018 RMK A01 T01110057  RH  069%=      5-min Rain = 0
KLA1 221649Z 36010KT 11/06 A3018 RMK A01 T01120057  RH  069%=      5-min Rain = 0
KLA1 221650Z 35010KT 11/06 A3018 RMK A01 T01130058  RH  069%=      5-min Rain = 0
KLA1 221651Z 34010KT 11/06 A3018 RMK A01 T01130057  RH  068%=      5-min Rain = 0
KLA1 221652Z 35008KT 11/06 A3018 RMK A01 T01130057  RH  068%=      5-min Rain = 0
KLA1 221653Z 00007KT 11/06 A3018 RMK A01 T01120057  RH  069%=      5-min Rain = 0
KLA1 221654Z 02007KT 11/06 A3018 RMK A01 T01110056  RH  069%=      5-min Rain = 0
KLA1 221655Z 01008KT 11/06 A3018 RMK A01 T01110057  RH  069%=      5-min Rain = 0
KLA1 221656Z 36009KT 11/06 A3018 RMK A01 T01110057  RH  069%=      5-min Rain = 0
KLA1 221657Z 35009KT 11/06 A3018 RMK A01 T01110057  RH  069%=      5-min Rain = 0
KLA1 221658Z 02006KT 11/06 A3018 RMK A01 T01110057  RH  070%=      5-min Rain = 0
KLA1 221659Z 00008G13KT 11/06 A3018 RMK A01 T01120057  RH  069%=      5-min Rain = 0
KLA1 221700Z 36009KT 11/06 A3018 RMK A01 T01120057  RH  069%=      5-min Rain = 0
KLA1 221701Z 01007KT 11/06 A3018 RMK A01 T01110057  RH  069%=      5-min Rain = 0
KLA1 221702Z 35008KT 11/06 A3018 RMK A01 T01120057  RH  069%=      5-min Rain = 0
KLA1 221703Z 35009KT 11/06 A3018 RMK A01 T01130058  RH  069%=      5-min Rain = 0
KLA1 221704Z 00009KT 11/06 A3018 RMK A01 T01130057  RH  068%=      5-min Rain = 0
KLA1 221705Z 02008KT 11/06 A3018 RMK A01 T01120057  RH  069%=      5-min Rain = 0
KLA1 221706Z 02008KT 11/06 A3018 RMK A01 T01130058  RH  069%=      5-min Rain = 0
KLA1 221707Z 01006KT 11/06 A3018 RMK A01 T01130057  RH  069%=      5-min Rain = 0
KLA1 221708Z 01007KT 11/06 A3018 RMK A01 T01140059  RH  069%=      5-min Rain = 0
KLA1 221709Z 01005KT 12/06 A3018 RMK A01 T01150058  RH  068%=      5-min Rain = 0
KLA1 221710Z 02009KT 12/06 A3018 RMK A01 T01150058  RH  068%=      5-min Rain = 0
KLA1 221711Z 02010KT 12/06 A3018 RMK A01 T01160058  RH  068%=      5-min Rain = 0
KLA1 221712Z 35008KT 12/06 A3018 RMK A01 T01150057  RH  067%=      5-min Rain = 0
KLA1 221713Z 01006KT 11/06 A3018 RMK A01 T01130058  RH  069%=      5-min Rain = 0
KLA1 221714Z 00008KT 11/06 A3018 RMK A01 T01140058  RH  068%=      5-min Rain = 0
KLA1 221715Z 01008KT 12/06 A3018 RMK A01 T01150058  RH  068%=      5-min Rain = 0
KLA1 221716Z 02008G13KT 12/06 A3018 RMK A01 T01170058  RH  067%=      5-min Rain = 0
KLA1 221717Z 01007KT 12/06 A3018 RMK A01 T01160058  RH  067%=      5-min Rain = 0
KLA1 221718Z 02008KT 12/06 A3017 RMK A01 T01160059  RH  068%=      5-min Rain = 0
KLA1 221719Z 03011G17KT 12/06 A3017 RMK A01 T01160058  RH  067%=      5-min Rain = 0
KLA1 221720Z 01010KT 12/06 A3017 RMK A01 T01150057  RH  067%=      5-min Rain = 0
KLA1 221721Z 02010KT 11/06 A3017 RMK A01 T01130057  RH  069%=      5-min Rain = 0
KLA1 221722Z 03011KT 11/06 A3017 RMK A01 T01130059  RH  069%=      5-min Rain = 0
KLA1 221723Z 02010KT 12/06 A3017 RMK A01 T01150058  RH  068%=      5-min Rain = 0
KLA1 221724Z 03009KT 12/06 A3017 RMK A01 T01150058  RH  068%=      5-min Rain = 0
KLA1 221725Z 03009KT 12/06 A3017 RMK A01 T01160059  RH  068%=      5-min Rain = 0
KLA1 221726Z 03010KT 12/06 A3017 RMK A01 T01160059  RH  068%=      5-min Rain = 0
KLA1 221727Z 02010KT 12/06 A3017 RMK A01 T01170058  RH  067%=      5-min Rain = 0
KLA1 221728Z 03007KT 12/06 A3017 RMK A01 T01160059  RH  068%=      5-min Rain = 0
KLA1 221729Z 02010G15KT 12/06 A3017 RMK A01 T01180060  RH  068%=      5-min Rain = 0
KLA1 221730Z 02009G14KT 12/06 A3017 RMK A01 T01190058  RH  066%=      5-min Rain = 0
KLA1 221731Z 00012G17KT 12/06 A3017 RMK A01 T01170059  RH  067%=      5-min Rain = 0
KLA1 221732Z 36005KT 12/06 A3017 RMK A01 T01180059  RH  067%=      5-min Rain = 0
KLA1 221733Z 00008KT 12/06 A3017 RMK A01 T01180060  RH  067%=      5-min Rain = 0
KLA1 221734Z 02006KT 12/06 A3017 RMK A01 T01190060  RH  067%=      5-min Rain = 0
KLA1 221735Z 02008KT 12/06 A3017 RMK A01 T01200060  RH  067%=      5-min Rain = 0
KLA1 221736Z 01011KT 12/06 A3017 RMK A01 T01200059  RH  066%=      5-min Rain = 0
KLA1 221737Z 01013KT 12/06 A3017 RMK A01 T01180058  RH  067%=      5-min Rain = 0
KLA1 221738Z 02008KT 12/06 A3017 RMK A01 T01160057  RH  067%=      5-min Rain = 0
KLA1 221739Z 01011G16KT 12/06 A3017 RMK A01 T01150058  RH  068%=      5-min Rain = 0
KLA1 221740Z 00009KT 12/06 A3017 RMK A01 T01150058  RH  068%=      5-min Rain = 0
KLA1 221741Z 01006KT 12/06 A3017 RMK A01 T01150059  RH  068%=      5-min Rain = 0
KLA1 221742Z 03008KT 12/06 A3017 RMK A01 T01170060  RH  068%=      5-min Rain = 0
KLA1 221743Z 01009KT 12/06 A3016 RMK A01 T01190059  RH  067%=      5-min Rain = 0
KLA1 221744Z 02007KT 12/06 A3016 RMK A01 T01180059  RH  067%=      5-min Rain = 0
KLA1 221745Z 03010KT 12/06 A3016 RMK A01 T01180059  RH  067%=      5-min Rain = 0
KLA1 221746Z 02010KT 12/06 A3016 RMK A01 T01170059  RH  067%=      5-min Rain = 0
KLA1 221747Z 02009KT 12/06 A3016 RMK A01 T01170059  RH  068%=      5-min Rain = 0
KLA1 221748Z 01009KT 12/06 A3016 RMK A01 T01170059  RH  068%=      5-min Rain = 0
KLA1 221749Z 36007KT 12/06 A3016 RMK A01 T01170059  RH  068%=      5-min Rain = 0
KLA1 221750Z 02009KT 12/06 A3016 RMK A01 T01160059  RH  068%=      5-min Rain = 0
KLA1 221751Z 03011KT 12/06 A3016 RMK A01 T01170059  RH  068%=      5-min Rain = 0
KLA1 221752Z 03009KT 12/06 A3016 RMK A01 T01170059  RH  067%=      5-min Rain = 0
KLA1 221753Z 03011KT 12/06 A3016 RMK A01 T01160059  RH  068%=      5-min Rain = 0
KLA1 221754Z 03011KT 12/06 A3016 RMK A01 T01160059  RH  068%=      5-min Rain = 0
KLA1 221755Z 03009G14KT 12/06 A3016 RMK A01 T01150058  RH  068%=      5-min Rain = 0
KLA1 221756Z 04008KT 12/06 A3016 RMK A01 T01160060  RH  069%=      5-min Rain = 0
KLA1 221757Z 03007KT 12/06 A3016 RMK A01 T01180061  RH  068%=      5-min Rain = 0
KLA1 221758Z 03010KT 12/06 A3016 RMK A01 T01200060  RH  067%=      5-min Rain = 0
KLA1 221759Z 03007G12KT 12/06 A3016 RMK A01 T01200059  RH  066%=      5-min Rain = 0
KLA1 221800Z 03009KT 12/06 A3016 RMK A01 T01190060  RH  067%=      5-min Rain = 0
KLA1 221801Z 02008G13KT 12/06 A3016 RMK A01 T01200060  RH  067%=      5-min Rain = 0
KLA1 221802Z 00007KT 12/06 A3016 RMK A01 T01190060  RH  067%=      5-min Rain = 0
KLA1 221803Z 34006KT 12/06 A3016 RMK A01 T01180058  RH  067%=      5-min Rain = 0
KLA1 221804Z 02007G12KT 12/06 A3016 RMK A01 T01170059  RH  068%=      5-min Rain = 0
KLA1 221805Z 35007KT 12/06 A3016 RMK A01 T01170060  RH  068%=      5-min Rain = 0
KLA1 221806Z 01007KT 12/06 A3016 RMK A01 T01190059  RH  067%=      5-min Rain = 0
KLA1 221807Z 35010KT 12/06 A3016 RMK A01 T01200060  RH  067%=      5-min Rain = 0
KLA1 221808Z 35007KT 12/06 A3016 RMK A01 T01200059  RH  066%=      5-min Rain = 0
KLA1 221809Z 02006KT 12/06 A3016 RMK A01 T01200060  RH  067%=      5-min Rain = 0
KLA1 221810Z 03009KT 12/06 A3016 RMK A01 T01230061  RH  066%=      5-min Rain = 0
KLA1 221811Z 02008KT 12/06 A3015 RMK A01 T01240061  RH  065%=      5-min Rain = 0
KLA1 221812Z 03009KT 13/06 A3015 RMK A01 T01250061  RH  065%=      5-min Rain = 0
KLA1 221813Z 03010KT 13/06 A3015 RMK A01 T01250060  RH  065%=      5-min Rain = 0
KLA1 221814Z 03007KT 12/06 A3015 RMK A01 T01240060  RH  065%=      5-min Rain = 0
KLA1 221815Z 04008KT 12/06 A3015 RMK A01 T01230060  RH  065%=      5-min Rain = 0
KLA1 221816Z 02008KT 12/06 A3015 RMK A01 T01230061  RH  066%=      5-min Rain = 0
KLA1 221817Z 03005KT 12/06 A3015 RMK A01 T01240060  RH  065%=      5-min Rain = 0
KLA1 221818Z 03008KT 12/06 A3015 RMK A01 T01240060  RH  065%=      5-min Rain = 0
KLA1 221819Z 03008KT 12/06 A3015 RMK A01 T01230060  RH  065%=      5-min Rain = 0
KLA1 221820Z 04009KT 12/06 A3015 RMK A01 T01230061  RH  066%=      5-min Rain = 0
KLA1 221821Z 02008KT 12/06 A3015 RMK A01 T01230060  RH  065%=      5-min Rain = 0
KLA1 221822Z 36008KT 12/06 A3015 RMK A01 T01210060  RH  066%=      5-min Rain = 0
KLA1 221823Z 35006KT 12/06 A3015 RMK A01 T01210061  RH  066%=      5-min Rain = 0
KLA1 221824Z 02009KT 12/06 A3015 RMK A01 T01220060  RH  066%=      5-min Rain = 0
KLA1 221825Z 02005KT 12/06 A3015 RMK A01 T01220061  RH  066%=      5-min Rain = 0
KLA1 221826Z 02008KT 12/06 A3015 RMK A01 T01240061  RH  066%=      5-min Rain = 0
KLA1 221827Z 03007KT 13/06 A3015 RMK A01 T01260062  RH  065%=      5-min Rain = 0
KLA1 221828Z 02007KT 13/06 A3014 RMK A01 T01260061  RH  064%=      5-min Rain = 0
KLA1 221829Z 02009KT 13/06 A3014 RMK A01 T01270061  RH  064%=      5-min Rain = 0
KLA1 221830Z 03005KT 13/06 A3014 RMK A01 T01270061  RH  064%=      5-min Rain = 0
KLA1 221831Z 01005KT 13/06 A3014 RMK A01 T01270060  RH  064%=      5-min Rain = 0
KLA1 221832Z 01007KT 13/06 A3014 RMK A01 T01270060  RH  064%=      5-min Rain = 0
KLA1 221833Z 35008KT 13/06 A3014 RMK A01 T01250060  RH  064%=      5-min Rain = 0
KLA1 221834Z 02008KT 13/06 A3014 RMK A01 T01250061  RH  065%=      5-min Rain = 0
KLA1 221835Z 01007KT 13/06 A3014 RMK A01 T01250060  RH  065%=      5-min Rain = 0
KLA1 221836Z 00008G13KT 13/06 A3014 RMK A01 T01250061  RH  065%=      5-min Rain = 0
KLA1 221837Z 02007KT 13/06 A3014 RMK A01 T01260060  RH  064%=      5-min Rain = 0
KLA1 221838Z 03009KT 13/06 A3014 RMK A01 T01250060  RH  064%=      5-min Rain = 0
KLA1 221839Z 04008KT 12/06 A3014 RMK A01 T01240060  RH  065%=      5-min Rain = 0
KLA1 221840Z 35010KT 13/06 A3014 RMK A01 T01250061  RH  065%=      5-min Rain = 0
KLA1 221841Z 35007KT 13/06 A3014 RMK A01 T01260061  RH  064%=      5-min Rain = 0
KLA1 221842Z 02008KT 13/06 A3014 RMK A01 T01270062  RH  064%=      5-min Rain = 0
KLA1 221843Z 03009KT 13/06 A3014 RMK A01 T01280061  RH  064%=      5-min Rain = 0
KLA1 221844Z 04008KT 13/06 A3014 RMK A01 T01270061  RH  064%=      5-min Rain = 0
KLA1 221845Z 03008KT 13/06 A3014 RMK A01 T01270061  RH  064%=      5-min Rain = 0
KLA1 221846Z 02009KT 13/06 A3013 RMK A01 T01260061  RH  064%=      5-min Rain = 0
KLA1 221847Z 00009KT 13/06 A3013 RMK A01 T01260061  RH  065%=      5-min Rain = 0
KLA1 221848Z 35007KT 13/06 A3013 RMK A01 T01270060  RH  064%=      5-min Rain = 0
KLA1 221849Z 35008G13KT 13/06 A3013 RMK A01 T01270060  RH  064%=      5-min Rain = 0
KLA1 221850Z 35009KT 13/06 A3013 RMK A01 T01270061  RH  064%=      5-min Rain = 0
KLA1 221851Z 34007KT 13/06 A3013 RMK A01 T01280061  RH  064%=      5-min Rain = 0
KLA1 221852Z 34010KT 13/06 A3013 RMK A01 T01300061  RH  063%=      5-min Rain = 0
KLA1 221853Z 00009KT 13/06 A3013 RMK A01 T01300060  RH  063%=      5-min Rain = 0
KLA1 221854Z 35007KT 13/06 A3013 RMK A01 T01270059  RH  063%=      5-min Rain = 0
KLA1 221855Z 35007KT 13/06 A3013 RMK A01 T01260060  RH  064%=      5-min Rain = 0
KLA1 221856Z 01006KT 13/06 A3013 RMK A01 T01250060  RH  065%=      5-min Rain = 0
KLA1 221857Z 00008KT 13/06 A3013 RMK A01 T01250060  RH  065%=      5-min Rain = 0
KLA1 221858Z 35005KT 13/06 A3013 RMK A01 T01250060  RH  065%=      5-min Rain = 0
KLA1 221859Z 01008KT 13/06 A3013 RMK A01 T01250061  RH  065%=      5-min Rain = 0
KLA1 221900Z 01006KT 13/06 A3012 RMK A01 T01280062  RH  064%=      5-min Rain = 0
KLA1 221901Z 02006KT 13/06 A3012 RMK A01 T01300062  RH  063%=      5-min Rain = 0
KLA1 221902Z 35008KT 13/06 A3012 RMK A01 T01300062  RH  063%=      5-min Rain = 0
KLA1 221903Z 01006KT 13/06 A3012 RMK A01 T01310062  RH  063%=      5-min Rain = 0
KLA1 221904Z 00008KT 13/06 A3012 RMK A01 T01320062  RH  062%=      5-min Rain = 0
KLA1 221905Z 35007KT 13/06 A3012 RMK A01 T01320061  RH  062%=      5-min Rain = 0
KLA1 221906Z 35007KT 13/06 A3012 RMK A01 T01330062  RH  062%=      5-min Rain = 0
KLA1 221907Z 00008KT 13/06 A3012 RMK A01 T01330061  RH  062%=      5-min Rain = 0
KLA1 221908Z 02007KT 13/06 A3012 RMK A01 T01320061  RH  062%=      5-min Rain = 0
KLA1 221909Z 35009KT 13/06 A3012 RMK A01 T01330062  RH  062%=      5-min Rain = 0
KLA1 221910Z 34007KT 13/06 A3012 RMK A01 T01330061  RH  062%=      5-min Rain = 0
KLA1 221911Z 35007KT 13/06 A3012 RMK A01 T01310060  RH  062%=      5-min Rain = 0
KLA1 221912Z 35008KT 13/06 A3012 RMK A01 T01310060  RH  062%=      5-min Rain = 0
KLA1 221913Z 36007KT 13/06 A3012 RMK A01 T01300060  RH  062%=      5-min Rain = 0
KLA1 221914Z 36008KT 13/06 A3011 RMK A01 T01300061  RH  063%=      5-min Rain = 0
KLA1 221915Z 35006KT 13/06 A3011 RMK A01 T01310060  RH  062%=      5-min Rain = 0
KLA1 221916Z 00006KT 13/06 A3011 RMK A01 T01320061  RH  062%=      5-min Rain = 0
KLA1 221917Z 02007KT 13/06 A3011 RMK A01 T01340062  RH  062%=      5-min Rain = 0
KLA1 221918Z 04005KT 13/06 A3011 RMK A01 T01340061  RH  061%=      5-min Rain = 0
KLA1 221919Z 04004KT 13/06 A3011 RMK A01 T01330061  RH  062%=      5-min Rain = 0
KLA1 221920Z 04004KT 13/06 A3011 RMK A01 T01330061  RH  062%=      5-min Rain = 0
KLA1 221921Z 04006KT 13/06 A3011 RMK A01 T01340063  RH  062%=      5-min Rain = 0
KLA1 221922Z 03007KT 14/06 A3011 RMK A01 T01370063  RH  061%=      5-min Rain = 0
KLA1 221923Z 03006KT 14/06 A301 RMK A01 T01370062  RH  060%=      5-min Rain = 0
KLA1 221924Z 36005KT 14/06 A301 RMK A01 T01360063  RH  061%=      5-min Rain = 0
KLA1 221925Z 02004KT 14/06 A301 RMK A01 T01350062  RH  061%=      5-min Rain = 0
KLA1 221926Z 02006KT 14/06 A301 RMK A01 T01360063  RH  061%=      5-min Rain = 0
KLA1 221927Z 01002KT 14/06 A301 RMK A01 T01360062  RH  061%=      5-min Rain = 0
KLA1 221928Z 34006KT 14/06 A301 RMK A01 T01370064  RH  061%=      5-min Rain = 0
KLA1 221929Z 35005KT 14/06 A301 RMK A01 T01380062  RH  060%=      5-min Rain = 0
KLA1 221930Z 35007KT 14/06 A301 RMK A01 T01390063  RH  060%=      5-min Rain = 0
KLA1 221931Z 34007KT 14/06 A301 RMK A01 T01400063  RH  060%=      5-min Rain = 0
KLA1 221932Z 35008KT 14/06 A301 RMK A01 T01390063  RH  060%=      5-min Rain = 0
KLA1 221933Z 02007KT 14/06 A301 RMK A01 T01380062  RH  060%=      5-min Rain = 0
KLA1 221934Z 01006KT 14/06 A301 RMK A01 T01380063  RH  061%=      5-min Rain = 0
KLA1 221935Z 35001KT 14/06 A301 RMK A01 T01360061  RH  060%=      5-min Rain = 0
KLA1 221936Z 33004KT 13/06 A301 RMK A01 T01340061  RH  061%=      5-min Rain = 0
KLA1 221937Z 30005KT 14/06 A301 RMK A01 T01370063  RH  061%=      5-min Rain = 0
KLA1 221938Z 34006KT 14/06 A301 RMK A01 T01400064  RH  060%=      5-min Rain = 0
KLA1 221939Z 35008KT 14/06 A301 RMK A01 T01420064  RH  059%=      5-min Rain = 0
KLA1 221940Z 34008KT 14/06 A301 RMK A01 T01410063  RH  059%=      5-min Rain = 0
KLA1 221941Z 34006KT 14/06 A301 RMK A01 T01390063  RH  060%=      5-min Rain = 0
KLA1 221942Z 36004KT 14/06 A3009 RMK A01 T01380063  RH  060%=      5-min Rain = 0
KLA1 221943Z 32003KT 14/06 A3009 RMK A01 T01390064  RH  061%=      5-min Rain = 0
KLA1 221944Z 34006KT 14/06 A3009 RMK A01 T01400063  RH  060%=      5-min Rain = 0
KLA1 221945Z 36005KT 14/06 A3009 RMK A01 T01410063  RH  060%=      5-min Rain = 0
KLA1 221946Z 34004KT 14/06 A3009 RMK A01 T01410064  RH  060%=      5-min Rain = 0
KLA1 221947Z 33006KT 14/07 A3009 RMK A01 T01430065  RH  059%=      5-min Rain = 0
KLA1 221948Z 35007KT 15/07 A3009 RMK A01 T01460066  RH  059%=      5-min Rain = 0
KLA1 221949Z 33006KT 15/06 A3009 RMK A01 T01470064  RH  058%=      5-min Rain = 0
KLA1 221950Z 32005KT 15/06 A3009 RMK A01 T01450064  RH  058%=      5-min Rain = 0
KLA1 221951Z 31004KT 15/07 A3009 RMK A01 T01450065  RH  059%=      5-min Rain = 0
KLA1 221952Z 31004KT 15/07 A3009 RMK A01 T01460065  RH  058%=      5-min Rain = 0
KLA1 221953Z 35004KT 15/07 A3009 RMK A01 T01480066  RH  058%=      5-min Rain = 0
KLA1 221954Z 01004KT 15/06 A3009 RMK A01 T01510064  RH  056%=      5-min Rain = 0
KLA1 221955Z 35004KT 15/07 A3009 RMK A01 T01500065  RH  057%=      5-min Rain = 0
KLA1 221956Z 04003KT 15/07 A3009 RMK A01 T01490065  RH  057%=      5-min Rain = 0
KLA1 221957Z 01005KT 15/06 A3009 RMK A01 T01480064  RH  057%=      5-min Rain = 0
KLA1 221958Z 02005KT 15/06 A3009 RMK A01 T01470064  RH  058%=      5-min Rain = 0
KLA1 221959Z 03005KT 15/06 A3009 RMK A01 T01470064  RH  057%=      5-min Rain = 0
KLA1 222000Z 35005KT 15/06 A3009 RMK A01 T01470064  RH  057%=      5-min Rain = 0
KLA1 222001Z 34007KT 15/06 A3009 RMK A01 T01480064  RH  057%=      5-min Rain = 0
KLA1 222002Z 35006KT 15/06 A3009 RMK A01 T01500064  RH  056%=      5-min Rain = 0
KLA1 222003Z 34005KT 15/06 A3009 RMK A01 T01510064  RH  056%=      5-min Rain = 0
KLA1 222004Z 36006KT 15/06 A3009 RMK A01 T01510063  RH  056%=      5-min Rain = 0
KLA1 222005Z 03005KT 15/06 A3009 RMK A01 T01500064  RH  057%=      5-min Rain = 0
KLA1 222006Z 02004KT 15/06 A3009 RMK A01 T01500064  RH  057%=      5-min Rain = 0
KLA1 222007Z 36002KT 15/06 A3008 RMK A01 T01480063  RH  057%=      5-min Rain = 0
KLA1 222008Z 02003KT 15/06 A3008 RMK A01 T01470063  RH  057%=      5-min Rain = 0
KLA1 222009Z 35006KT 15/06 A3008 RMK A01 T01470064  RH  057%=      5-min Rain = 0
KLA1 222010Z 32005KT 15/07 A3008 RMK A01 T01500065  RH  057%=      5-min Rain = 0
KLA1 222011Z 32007KT 15/06 A3008 RMK A01 T01520064  RH  056%=      5-min Rain = 0
KLA1 222012Z 34007KT 15/06 A3008 RMK A01 T01530063  RH  055%=      5-min Rain = 0
KLA1 222013Z 34007KT 15/06 A3008 RMK A01 T01510062  RH  055%=      5-min Rain = 0
KLA1 222014Z 35007KT 15/06 A3008 RMK A01 T01510064  RH  056%=      5-min Rain = 0
KLA1 222015Z 34006KT 15/06 A3008 RMK A01 T01530064  RH  055%=      5-min Rain = 0
KLA1 222016Z 36007KT 16/06 A3008 RMK A01 T01550064  RH  054%=      5-min Rain = 0
KLA1 222017Z 35007KT 16/06 A3008 RMK A01 T01560064  RH  054%=      5-min Rain = 0
KLA1 222018Z 36006KT 16/06 A3008 RMK A01 T01550063  RH  054%=      5-min Rain = 0
KLA1 222019Z 36006KT 15/06 A3008 RMK A01 T01530063  RH  055%=      5-min Rain = 0
KLA1 222020Z 36005KT 15/06 A3008 RMK A01 T01510063  RH  056%=      5-min Rain = 0
KLA1 222021Z 34004KT 15/06 A3008 RMK A01 T01500062  RH  056%=      5-min Rain = 0
KLA1 222022Z 29003KT 15/06 A3008 RMK A01 T01500062  RH  056%=      5-min Rain = 0
KLA1 222023Z 32001KT 15/06 A3008 RMK A01 T01500063  RH  056%=      5-min Rain = 0
KLA1 222024Z 32004KT 15/07 A3008 RMK A01 T01510065  RH  056%=      5-min Rain = 0
KLA1 222025Z 34005KT 15/06 A3008 RMK A01 T01540064  RH  055%=      5-min Rain = 0
KLA1 222026Z 35007KT 16/07 A3008 RMK A01 T01570065  RH  054%=      5-min Rain = 0
KLA1 222027Z 34007KT 16/06 A3008 RMK A01 T01570063  RH  053%=      5-min Rain = 0
KLA1 222028Z 33004KT 16/06 A3008 RMK A01 T01560063  RH  054%=      5-min Rain = 0
KLA1 222029Z 30004KT 15/06 A3007 RMK A01 T01540063  RH  054%=      5-min Rain = 0
KLA1 222030Z 30003KT 15/06 A3007 RMK A01 T01530063  RH  055%=      5-min Rain = 0
KLA1 222031Z 28003KT 15/06 A3007 RMK A01 T01530064  RH  055%=      5-min Rain = 0
KLA1 222032Z 31003KT 16/07 A3007 RMK A01 T01550065  RH  055%=      5-min Rain = 0
KLA1 222033Z 35003KT 16/07 A3007 RMK A01 T01560065  RH  055%=      5-min Rain = 0
KLA1 222034Z 33004KT 16/07 A3007 RMK A01 T01570065  RH  054%=      5-min Rain = 0
KLA1 222035Z 01005KT 16/07 A3007 RMK A01 T01570065  RH  054%=      5-min Rain = 0
KLA1 222036Z 36006KT 16/07 A3007 RMK A01 T01580066  RH  054%=      5-min Rain = 0
KLA1 222037Z 34007KT 16/07 A3007 RMK A01 T01580066  RH  054%=      5-min Rain = 0
KLA1 222038Z 35006KT 16/07 A3007 RMK A01 T01570065  RH  054%=      5-min Rain = 0
KLA1 222039Z 33007KT 16/07 A3007 RMK A01 T01560065  RH  054%=      5-min Rain = 0
KLA1 222040Z 33004KT 16/06 A3007 RMK A01 T01550064  RH  055%=      5-min Rain = 0
KLA1 222041Z 35006KT 16/07 A3007 RMK A01 T01550065  RH  055%=      5-min Rain = 0
KLA1 222042Z 36005KT 16/06 A3007 RMK A01 T01560064  RH  054%=      5-min Rain = 0
KLA1 222043Z 35003KT 16/06 A3007 RMK A01 T01560063  RH  054%=      5-min Rain = 0
KLA1 222044Z 36001KT 16/06 A3007 RMK A01 T01570063  RH  054%=      5-min Rain = 0
KLA1 222045Z 33001KT 16/06 A3007 RMK A01 T01570063  RH  054%=      5-min Rain = 0
KLA1 222046Z 30004KT 16/06 A3007 RMK A01 T01570063  RH  054%=      5-min Rain = 0
KLA1 222047Z 32007KT 16/06 A3007 RMK A01 T01590064  RH  053%=      5-min Rain = 0
KLA1 222048Z 35003KT 16/07 A3007 RMK A01 T01600065  RH  053%=      5-min Rain = 0
KLA1 222049Z 30002KT 16/06 A3007 RMK A01 T01620064  RH  052%=      5-min Rain = 0
KLA1 222050Z 30002KT 16/06 A3007 RMK A01 T01620064  RH  052%=      5-min Rain = 0
KLA1 222051Z 35006KT 16/06 A3007 RMK A01 T01620064  RH  052%=      5-min Rain = 0
KLA1 222052Z 36005KT 16/06 A3007 RMK A01 T01610064  RH  052%=      5-min Rain = 0
KLA1 222053Z 32006KT 16/06 A3007 RMK A01 T01610064  RH  052%=      5-min Rain = 0
KLA1 222054Z 32004KT 16/06 A3007 RMK A01 T01610064  RH  052%=      5-min Rain = 0
KLA1 222055Z 01004KT 16/06 A3007 RMK A01 T01620064  RH  052%=      5-min Rain = 0
KLA1 222056Z 33004KT 16/06 A3007 RMK A01 T01620063  RH  052%=      5-min Rain = 0
KLA1 222057Z 30005KT 16/06 A3007 RMK A01 T01610063  RH  052%=      5-min Rain = 0
KLA1 222058Z 32004KT 16/06 A3007 RMK A01 T01600063  RH  053%=      5-min Rain = 0
KLA1 222059Z 34004KT 16/06 A3007 RMK A01 T01590064  RH  053%=      5-min Rain = 0
KLA1 222100Z 33005KT 16/06 A3007 RMK A01 T01580063  RH  053%=      5-min Rain = 0
KLA1 222101Z 35005KT 16/06 A3007 RMK A01 T01570063  RH  054%=      5-min Rain = 0
KLA1 222102Z 35005KT 16/06 A3007 RMK A01 T01570064  RH  054%=      5-min Rain = 0
KLA1 222103Z 36004KT 16/06 A3006 RMK A01 T01580063  RH  053%=      5-min Rain = 0
KLA1 222104Z 34005KT 16/06 A3006 RMK A01 T01590064  RH  054%=      5-min Rain = 0
KLA1 222105Z 34007KT 16/07 A3006 RMK A01 T01600065  RH  053%=      5-min Rain = 0
KLA1 222106Z 34004KT 16/06 A3007 RMK A01 T01600064  RH  053%=      5-min Rain = 0
KLA1 222107Z 31006KT 16/06 A3006 RMK A01 T01600064  RH  053%=      5-min Rain = 0
KLA1 222108Z 34006KT 16/06 A3006 RMK A01 T01600064  RH  053%=      5-min Rain = 0
KLA1 222109Z 32006KT 16/06 A3006 RMK A01 T01600064  RH  053%=      5-min Rain = 0
KLA1 222110Z 31006KT 16/06 A3006 RMK A01 T01610063  RH  052%=      5-min Rain = 0
KLA1 222111Z 32006KT 16/06 A3006 RMK A01 T01610063  RH  052%=      5-min Rain = 0
KLA1 222112Z 32004KT 16/06 A3006 RMK A01 T01630064  RH  052%=      5-min Rain = 0
KLA1 222113Z 30002KT 16/06 A3006 RMK A01 T01640063  RH  051%=      5-min Rain = 0
KLA1 222114Z 28001KT 16/06 A3006 RMK A01 T01630063  RH  052%=      5-min Rain = 0
KLA1 222115Z 29003KT 16/06 A3006 RMK A01 T01640063  RH  051%=      5-min Rain = 0
KLA1 222116Z 36004KT 17/06 A3006 RMK A01 T01650064  RH  051%=      5-min Rain = 0
KLA1 222117Z 00005KT 17/06 A3006 RMK A01 T01660064  RH  051%=      5-min Rain = 0
KLA1 222118Z 35005KT 17/06 A3006 RMK A01 T01650063  RH  051%=      5-min Rain = 0
KLA1 222119Z 03006KT 16/06 A3006 RMK A01 T01640064  RH  052%=      5-min Rain = 0
KLA1 222120Z 35005KT 16/06 A3006 RMK A01 T01640064  RH  052%=      5-min Rain = 0
KLA1 222121Z 34002KT 16/06 A3006 RMK A01 T01640063  RH  051%=      5-min Rain = 0
KLA1 222122Z 34003KT 16/06 A3006 RMK A01 T01630064  RH  052%=      5-min Rain = 0
KLA1 222123Z 34003KT 16/06 A3006 RMK A01 T01630063  RH  052%=      5-min Rain = 0
KLA1 222124Z 32003KT 16/06 A3006 RMK A01 T01620063  RH  052%=      5-min Rain = 0
KLA1 222125Z 34006KT 16/06 A3006 RMK A01 T01620064  RH  052%=      5-min Rain = 0
KLA1 222126Z 33004KT 16/06 A3006 RMK A01 T01630063  RH  052%=      5-min Rain = 0
KLA1 222127Z 30002KT 16/06 A3006 RMK A01 T01620064  RH  052%=      5-min Rain = 0
KLA1 222128Z 30001KT 16/06 A3006 RMK A01 T01630064  RH  052%=      5-min Rain = 0
KLA1 222129Z 34003G8KT 16/06 A3006 RMK A01 T01640064  RH  052%=      5-min Rain = 0
KLA1 222130Z 34005KT 16/06 A3006 RMK A01 T01640064  RH  052%=      5-min Rain = 0
KLA1 222131Z 35007KT 17/06 A3006 RMK A01 T01650064  RH  051%=      5-min Rain = 0
KLA1 222132Z 35007KT 17/06 A3006 RMK A01 T01650064  RH  051%=      5-min Rain = 0
KLA1 222133Z 34007KT 17/06 A3006 RMK A01 T01660064  RH  051%=      5-min Rain = 0
KLA1 222134Z 35006KT 17/06 A3006 RMK A01 T01660064  RH  051%=      5-min Rain = 0
KLA1 222135Z 35005KT 17/06 A3006 RMK A01 T01650064  RH  051%=      5-min Rain = 0
KLA1 222136Z 34005KT 17/06 A3006 RMK A01 T01650064  RH  051%=      5-min Rain = 0
KLA1 222137Z 33002KT 16/06 A3005 RMK A01 T01640064  RH  051%=      5-min Rain = 0
KLA1 222138Z 34004KT 16/06 A3005 RMK A01 T01640064  RH  052%=      5-min Rain = 0
KLA1 222139Z 00005KT 16/06 A3005 RMK A01 T01640064  RH  052%=      5-min Rain = 0
KLA1 222140Z 00005KT 16/06 A3005 RMK A01 T01640064  RH  052%=      5-min Rain = 0
KLA1 222141Z 31005KT 16/07 A3005 RMK A01 T01640065  RH  052%=      5-min Rain = 0
KLA1 222142Z 32007KT 16/06 A3005 RMK A01 T01640064  RH  051%=      5-min Rain = 0
KLA1 222143Z 34005KT 16/06 A3005 RMK A01 T01630062  RH  051%=      5-min Rain = 0
KLA1 222144Z 02004KT 16/06 A3005 RMK A01 T01630063  RH  052%=      5-min Rain = 0
KLA1 222145Z 02004KT 16/06 A3005 RMK A01 T01630064  RH  052%=      5-min Rain = 0
KLA1 222146Z 03003KT 16/06 A3005 RMK A01 T01640064  RH  052%=      5-min Rain = 0
KLA1 222147Z 00005KT 17/06 A3005 RMK A01 T01650063  RH  051%=      5-min Rain = 0
KLA1 222148Z 34004KT 17/06 A3005 RMK A01 T01650063  RH  051%=      5-min Rain = 0
KLA1 222149Z 01003KT 16/06 A3005 RMK A01 T01640062  RH  051%=      5-min Rain = 0
KLA1 222150Z 03004KT 16/06 A3005 RMK A01 T01640063  RH  051%=      5-min Rain = 0
KLA1 222151Z 02006KT 17/06 A3005 RMK A01 T01660064  RH  051%=      5-min Rain = 0
KLA1 222152Z 00005KT 17/07 A3005 RMK A01 T01670065  RH  051%=      5-min Rain = 0
KLA1 222153Z 01003KT 17/06 A3005 RMK A01 T01660064  RH  051%=      5-min Rain = 0
KLA1 222154Z 01005KT 17/07 A3005 RMK A01 T01660065  RH  051%=      5-min Rain = 0
KLA1 222155Z 01005KT 17/07 A3005 RMK A01 T01660065  RH  051%=      5-min Rain = 0
KLA1 222156Z 35005KT 17/07 A3005 RMK A01 T01680065  RH  051%=      5-min Rain = 0
KLA1 222157Z 35009KT 17/07 A3005 RMK A01 T01690065  RH  050%=      5-min Rain = 0
KLA1 222158Z 34007KT 17/06 A3005 RMK A01 T01690064  RH  050%=      5-min Rain = 0
KLA1 222159Z 32005KT 17/06 A3005 RMK A01 T01680064  RH  050%=      5-min Rain = 0
KLA1 222200Z 35007KT 17/06 A3005 RMK A01 T01680064  RH  050%=      5-min Rain = 0
KLA1 222201Z 34007KT 17/06 A3005 RMK A01 T01690064  RH  050%=      5-min Rain = 0
KLA1 222202Z 33006KT 17/06 A3005 RMK A01 T01690063  RH  050%=      5-min Rain = 0
KLA1 222203Z 35006KT 17/06 A3005 RMK A01 T01680063  RH  050%=      5-min Rain = 0
KLA1 222204Z 31006KT 17/06 A3005 RMK A01 T01680063  RH  050%=      5-min Rain = 0
KLA1 222205Z 31005KT 17/06 A3005 RMK A01 T01680063  RH  050%=      5-min Rain = 0
KLA1 222206Z 31006KT 17/06 A3005 RMK A01 T01690063  RH  050%=      5-min Rain = 0
KLA1 222207Z 32006KT 17/06 A3005 RMK A01 T01700062  RH  049%=      5-min Rain = 0
KLA1 222208Z 30005KT 17/06 A3005 RMK A01 T01690062  RH  049%=      5-min Rain = 0
KLA1 222209Z 29006KT 17/06 A3005 RMK A01 T01690062  RH  050%=      5-min Rain = 0
KLA1 222210Z 34008KT 17/06 A3004 RMK A01 T01690062  RH  049%=      5-min Rain = 0
KLA1 222211Z 34006KT 17/06 A3004 RMK A01 T01690062  RH  050%=      5-min Rain = 0
KLA1 222212Z 35005KT 17/06 A3004 RMK A01 T01680062  RH  049%=      5-min Rain = 0
KLA1 222213Z 34001KT 17/06 A3004 RMK A01 T01670061  RH  049%=      5-min Rain = 0
KLA1 222214Z 35002KT 17/06 A3004 RMK A01 T01670061  RH  050%=      5-min Rain = 0
KLA1 222215Z 33004KT 17/06 A3004 RMK A01 T01670061  RH  050%=      5-min Rain = 0
KLA1 222216Z 34003KT 17/06 A3004 RMK A01 T01690062  RH  049%=      5-min Rain = 0
KLA1 222217Z 31003KT 17/06 A3004 RMK A01 T01700063  RH  049%=      5-min Rain = 0
KLA1 222218Z 01003KT 17/06 A3004 RMK A01 T01690062  RH  049%=      5-min Rain = 0
KLA1 222219Z 03005KT 17/06 A3004 RMK A01 T01710063  RH  049%=      5-min Rain = 0
KLA1 222220Z 04004KT 17/06 A3004 RMK A01 T01710062  RH  049%=      5-min Rain = 0
KLA1 222221Z 02003KT 17/06 A3004 RMK A01 T01700062  RH  049%=      5-min Rain = 0
KLA1 222222Z 03003KT 17/06 A3004 RMK A01 T01700062  RH  049%=      5-min Rain = 0
KLA1 222223Z 01005KT 17/06 A3004 RMK A01 T01700062  RH  049%=      5-min Rain = 0
KLA1 222224Z 02005KT 17/06 A3004 RMK A01 T01700062  RH  049%=      5-min Rain = 0
KLA1 222225Z 05004KT 17/06 A3004 RMK A01 T01700062  RH  049%=      5-min Rain = 0
KLA1 222226Z 04003KT 17/06 A3004 RMK A01 T01690062  RH  049%=      5-min Rain = 0
KLA1 222227Z 05003KT 17/06 A3004 RMK A01 T01690062  RH  049%=      5-min Rain = 0
KLA1 222228Z 09002KT 17/06 A3004 RMK A01 T01690062  RH  049%=      5-min Rain = 0
KLA1 222229Z 06002KT 17/06 A3004 RMK A01 T01690062  RH  049%=      5-min Rain = 0
KLA1 222230Z 04002KT 17/06 A3004 RMK A01 T01690062  RH  049%=      5-min Rain = 0
KLA1 222231Z 02001KT 17/06 A3004 RMK A01 T01690062  RH  049%=      5-min Rain = 0
KLA1 222232Z 29002KT 17/06 A3004 RMK A01 T01700062  RH  049%=      5-min Rain = 0
KLA1 222233Z 34002KT 17/06 A3004 RMK A01 T01700062  RH  049%=      5-min Rain = 0
KLA1 222234Z 03003KT 17/06 A3004 RMK A01 T01710063  RH  049%=      5-min Rain = 0
KLA1 222235Z 04006KT 17/06 A3004 RMK A01 T01720063  RH  049%=      5-min Rain = 0
KLA1 222236Z 06003KT 17/06 A3004 RMK A01 T01710063  RH  049%=      5-min Rain = 0
KLA1 222237Z 05002KT 17/06 A3004 RMK A01 T01710064  RH  049%=      5-min Rain = 0
KLA1 222238Z 04003KT 17/06 A3004 RMK A01 T01710064  RH  049%=      5-min Rain = 0
KLA1 222239Z 01005KT 17/06 A3004 RMK A01 T01710063  RH  049%=      5-min Rain = 0
KLA1 222240Z 35004KT 17/06 A3004 RMK A01 T01700063  RH  049%=      5-min Rain = 0
KLA1 222241Z 35001KT 17/06 A3004 RMK A01 T01700063  RH  049%=      5-min Rain = 0
KLA1 222242Z 04002KT 17/06 A3004 RMK A01 T01700063  RH  049%=      5-min Rain = 0
KLA1 222243Z 07004KT 17/06 A3004 RMK A01 T01700063  RH  049%=      5-min Rain = 0
KLA1 222244Z 08006KT 17/06 A3003 RMK A01 T01700064  RH  050%=      5-min Rain = 0
KLA1 222245Z 06004KT 17/06 A3003 RMK A01 T01700064  RH  050%=      5-min Rain = 0
KLA1 222246Z 08005KT 17/07 A3003 RMK A01 T01700065  RH  050%=      5-min Rain = 0
KLA1 222247Z 09005KT 17/06 A3003 RMK A01 T01690064  RH  050%=      5-min Rain = 0
KLA1 222248Z 08005KT 17/06 A3003 RMK A01 T01670064  RH  050%=      5-min Rain = 0
KLA1 222249Z 07004KT 17/07 A3004 RMK A01 T01670065  RH  051%=      5-min Rain = 0
KLA1 222250Z 06003KT 17/07 A3004 RMK A01 T01670065  RH  051%=      5-min Rain = 0
KLA1 222251Z 04004KT 17/06 A3004 RMK A01 T01680064  RH  051%=      5-min Rain = 0
KLA1 222252Z 04004KT 17/07 A3004 RMK A01 T01680065  RH  050%=      5-min Rain = 0
KLA1 222253Z 05003KT 17/07 A3004 RMK A01 T01680065  RH  050%=      5-min Rain = 0
KLA1 222254Z 04004KT 17/06 A3004 RMK A01 T01680064  RH  051%=      5-min Rain = 0
KLA1 222255Z 04006KT 17/06 A3004 RMK A01 T01670064  RH  051%=      5-min Rain = 0
KLA1 222256Z 04004KT 17/06 A3004 RMK A01 T01660064  RH  051%=      5-min Rain = 0
KLA1 222257Z 04003KT 17/07 A3004 RMK A01 T01660065  RH  051%=      5-min Rain = 0
KLA1 222258Z 04007KT 17/07 A3004 RMK A01 T01660065  RH  051%=      5-min Rain = 0
KLA1 222259Z 04006KT 17/06 A3004 RMK A01 T01660064  RH  051%=      5-min Rain = 0
KLA1 222300Z 03004KT 17/06 A3004 RMK A01 T01650063  RH  051%=      5-min Rain = 0
KLA1 222301Z 03004KT 16/06 A3004 RMK A01 T01640064  RH  052%=      5-min Rain = 0
KLA1 222302Z 03007KT 16/06 A3004 RMK A01 T01640064  RH  052%=      5-min Rain = 0
KLA1 222303Z 03005KT 16/06 A3004 RMK A01 T01630063  RH  051%=      5-min Rain = 0
KLA1 222304Z 03006KT 16/06 A3004 RMK A01 T01630063  RH  052%=      5-min Rain = 0
KLA1 222305Z 03004KT 16/06 A3004 RMK A01 T01620063  RH  052%=      5-min Rain = 0
KLA1 222306Z 04005KT 16/06 A3004 RMK A01 T01620063  RH  052%=      5-min Rain = 0
KLA1 222307Z 04005KT 16/06 A3004 RMK A01 T01620063  RH  052%=      5-min Rain = 0
KLA1 222308Z 04004KT 16/06 A3004 RMK A01 T01620063  RH  052%=      5-min Rain = 0
KLA1 222309Z 03003KT 16/06 A3004 RMK A01 T01620063  RH  052%=      5-min Rain = 0
KLA1 222310Z 03003KT 16/06 A3004 RMK A01 T01620063  RH  052%=      5-min Rain = 0
KLA1 222311Z 04004KT 16/06 A3004 RMK A01 T01620063  RH  052%=      5-min Rain = 0
KLA1 222312Z 03004KT 16/06 A3004 RMK A01 T01620063  RH  052%=      5-min Rain = 0
KLA1 222313Z 03005KT 16/06 A3004 RMK A01 T01610063  RH  052%=      5-min Rain = 0
KLA1 222314Z 03005KT 16/06 A3004 RMK A01 T01610063  RH  052%=      5-min Rain = 0
KLA1 222315Z 04005KT 16/06 A3004 RMK A01 T01610063  RH  052%=      5-min Rain = 0
KLA1 222316Z 03004KT 16/06 A3004 RMK A01 T01600063  RH  052%=      5-min Rain = 0
KLA1 222317Z 04004KT 16/06 A3004 RMK A01 T01600063  RH  052%=      5-min Rain = 0
KLA1 222318Z 03002KT 16/06 A3004 RMK A01 T01590062  RH  053%=      5-min Rain = 0
KLA1 222319Z 04004KT 16/06 A3004 RMK A01 T01590063  RH  053%=      5-min Rain = 0
KLA1 222320Z 02005KT 16/06 A3004 RMK A01 T01590063  RH  053%=      5-min Rain = 0
KLA1 222321Z 03005KT 16/06 A3005 RMK A01 T01580063  RH  053%=      5-min Rain = 0
KLA1 222322Z 02004KT 16/06 A3005 RMK A01 T01570062  RH  053%=      5-min Rain = 0
KLA1 222323Z 03004KT 16/06 A3005 RMK A01 T01570063  RH  053%=      5-min Rain = 0
KLA1 222324Z 02004KT 16/06 A3005 RMK A01 T01570063  RH  054%=      5-min Rain = 0
KLA1 222325Z 03004KT 16/06 A3005 RMK A01 T01560063  RH  054%=      5-min Rain = 0
KLA1 222326Z 03004KT 16/06 A3005 RMK A01 T01550062  RH  054%=      5-min Rain = 0
KLA1 222327Z 03003KT 16/06 A3004 RMK A01 T01550062  RH  054%=      5-min Rain = 0
KLA1 222328Z 03003KT 16/06 A3004 RMK A01 T01550063  RH  054%=      5-min Rain = 0
KLA1 222329Z 03004KT 15/06 A3004 RMK A01 T01540062  RH  054%=      5-min Rain = 0
KLA1 222330Z 02003KT 15/06 A3005 RMK A01 T01530062  RH  054%=      5-min Rain = 0
KLA1 222331Z 02004KT 15/06 A3005 RMK A01 T01530062  RH  055%=      5-min Rain = 0
KLA1 222332Z 03003KT 15/06 A3005 RMK A01 T01520062  RH  055%=      5-min Rain = 0
KLA1 222333Z 02004KT 15/06 A3005 RMK A01 T01520062  RH  055%=      5-min Rain = 0
KLA1 222334Z 03004KT 15/06 A3005 RMK A01 T01510062  RH  055%=      5-min Rain = 0
KLA1 222335Z 04004KT 15/06 A3005 RMK A01 T01500062  RH  055%=      5-min Rain = 0
KLA1 222336Z 04004KT 15/06 A3005 RMK A01 T01500062  RH  056%=      5-min Rain = 0
KLA1 222337Z 03004KT 15/06 A3005 RMK A01 T01490062  RH  056%=      5-min Rain = 0
KLA1 222338Z 04004KT 15/06 A3005 RMK A01 T01490062  RH  056%=      5-min Rain = 0
KLA1 222339Z 03003KT 15/06 A3005 RMK A01 T01490062  RH  056%=      5-min Rain = 0
KLA1 222340Z 03003KT 15/06 A3005 RMK A01 T01490062  RH  056%=      5-min Rain = 0
KLA1 222341Z 03004KT 15/06 A3005 RMK A01 T01480061  RH  056%=      5-min Rain = 0
KLA1 222342Z 03004KT 15/06 A3005 RMK A01 T01480061  RH  056%=      5-min Rain = 0
KLA1 222343Z 03004KT 15/06 A3005 RMK A01 T01470061  RH  056%=      5-min Rain = 0
KLA1 222344Z 03004KT 15/06 A3005 RMK A01 T01470061  RH  056%=      5-min Rain = 0
KLA1 222345Z 03004KT 15/06 A3005 RMK A01 T01460061  RH  056%=      5-min Rain = 0
KLA1 222346Z 03003KT 15/06 A3005 RMK A01 T01460061  RH  057%=      5-min Rain = 0
KLA1 222347Z 03003KT 15/06 A3005 RMK A01 T01450061  RH  057%=      5-min Rain = 0
KLA1 222348Z 03003KT 14/06 A3005 RMK A01 T01440061  RH  057%=      5-min Rain = 0
KLA1 222349Z 04003KT 14/06 A3005 RMK A01 T01420061  RH  058%=      5-min Rain = 0
KLA1 222350Z 04003KT 14/06 A3005 RMK A01 T01410060  RH  058%=      5-min Rain = 0
KLA1 222351Z 04003KT 14/06 A3005 RMK A01 T01400061  RH  059%=      5-min Rain = 0
KLA1 222352Z 04004KT 14/06 A3005 RMK A01 T01390060  RH  059%=      5-min Rain = 0
KLA1 222353Z 04005KT 14/06 A3005 RMK A01 T01390060  RH  059%=      5-min Rain = 0
KLA1 222354Z 04005KT 14/06 A3005 RMK A01 T01390060  RH  059%=      5-min Rain = 0
KLA1 222355Z 05005KT 14/06 A3005 RMK A01 T01390060  RH  059%=      5-min Rain = 0
KLA1 222356Z 05006KT 14/06 A3005 RMK A01 T01390060  RH  059%=      5-min Rain = 0
KLA1 222357Z 05005KT 14/06 A3005 RMK A01 T01390060  RH  059%=      5-min Rain = 0
KLA1 222358Z 05005KT 14/06 A3005 RMK A01 T01390060  RH  059%=      5-min Rain = 0
KLA1 222359Z 05006KT 14/06 A3005 RMK A01 T01390060  RH  059%=      5-min Rain = 0
KLA1 230000Z 05005KT 14/06 A3005 RMK A01 T01390060  RH  059%=      5-min Rain = 0
KLA1 230001Z 05005KT 14/06 A3005 RMK A01 T01400060  RH  059%=      5-min Rain = 0
KLA1 230002Z 04006KT 14/06 A3005 RMK A01 T01390060  RH  059%=      5-min Rain = 0
KLA1 230003Z 04007KT 14/06 A3005 RMK A01 T01390060  RH  059%=      5-min Rain = 0
KLA1 230004Z 05006KT 14/06 A3005 RMK A01 T01390060  RH  059%=      5-min Rain = 0
KLA1 230005Z 04005KT 14/06 A3005 RMK A01 T01390060  RH  059%=      5-min Rain = 0
KLA1 230006Z 03005KT 14/06 A3005 RMK A01 T01390060  RH  059%=      5-min Rain = 0
KLA1 230007Z 03004KT 14/06 A3005 RMK A01 T01380059  RH  059%=      5-min Rain = 0
KLA1 230008Z 01004KT 14/06 A3005 RMK A01 T01370059  RH  059%=      5-min Rain = 0
KLA1 230009Z 01005KT 14/06 A3005 RMK A01 T01350059  RH  060%=      5-min Rain = 0
KLA1 230010Z 01005KT 13/06 A3005 RMK A01 T01330059  RH  061%=      5-min Rain = 0
KLA1 230011Z 02005KT 13/06 A3005 RMK A01 T01310058  RH  061%=      5-min Rain = 0
KLA1 230012Z 03005KT 13/06 A3005 RMK A01 T01300058  RH  062%=      5-min Rain = 0
KLA1 230013Z 02004KT 13/06 A3005 RMK A01 T01290058  RH  062%=      5-min Rain = 0
KLA1 230014Z 01005KT 13/06 A3005 RMK A01 T01280058  RH  062%=      5-min Rain = 0
KLA1 230015Z 01005KT 13/06 A3005 RMK A01 T01280058  RH  062%=      5-min Rain = 0
KLA1 230016Z 01005KT 13/06 A3005 RMK A01 T01280059  RH  063%=      5-min Rain = 0
KLA1 230017Z 01004KT 13/06 A3005 RMK A01 T01280059  RH  063%=      5-min Rain = 0
KLA1 230018Z 02004KT 13/06 A3005 RMK A01 T01280059  RH  063%=      5-min Rain = 0
KLA1 230019Z 02005KT 13/06 A3005 RMK A01 T01270058  RH  063%=      5-min Rain = 0
KLA1 230020Z 02005KT 13/06 A3005 RMK A01 T01260058  RH  063%=      5-min Rain = 0
KLA1 230021Z 02004KT 13/06 A3005 RMK A01 T01260058  RH  063%=      5-min Rain = 0
KLA1 230022Z 03003KT 13/06 A3005 RMK A01 T01270058  RH  063%=      5-min Rain = 0
KLA1 230023Z 05004KT 13/06 A3005 RMK A01 T01270058  RH  063%=      5-min Rain = 0
KLA1 230024Z 05005KT 13/06 A3005 RMK A01 T01260058  RH  063%=      5-min Rain = 0
KLA1 230025Z 05005KT 13/06 A3005 RMK A01 T01260058  RH  063%=      5-min Rain = 0
KLA1 230026Z 04005KT 13/06 A3005 RMK A01 T01270058  RH  063%=      5-min Rain = 0
KLA1 230027Z 04005KT 13/06 A3005 RMK A01 T01290059  RH  062%=      5-min Rain = 0
KLA1 230028Z 04005KT 13/06 A3005 RMK A01 T01300059  RH  062%=      5-min Rain = 0
KLA1 230029Z 03005KT 13/06 A3005 RMK A01 T01310059  RH  062%=      5-min Rain = 0
KLA1 230030Z 03005KT 13/06 A3005 RMK A01 T01310059  RH  061%=      5-min Rain = 0
KLA1 230031Z 03006KT 13/06 A3005 RMK A01 T01320059  RH  061%=      5-min Rain = 0
KLA1 230032Z 02005KT 13/06 A3005 RMK A01 T01310059  RH  061%=      5-min Rain = 0
KLA1 230033Z 01004KT 13/06 A3005 RMK A01 T01320059  RH  061%=      5-min Rain = 0
KLA1 230034Z 01005KT 13/06 A3005 RMK A01 T01300059  RH  062%=      5-min Rain = 0
KLA1 230035Z 02005KT 13/06 A3005 RMK A01 T01280058  RH  062%=      5-min Rain = 0
KLA1 230036Z 02004KT 13/06 A3005 RMK A01 T01270058  RH  063%=      5-min Rain = 0
KLA1 230037Z 03004KT 13/06 A3005 RMK A01 T01260058  RH  063%=      5-min Rain = 0
KLA1 230038Z 04003KT 13/06 A3005 RMK A01 T01250058  RH  064%=      5-min Rain = 0
KLA1 230039Z 04004KT 12/06 A3005 RMK A01 T01240058  RH  064%=      5-min Rain = 0
KLA1 230040Z 04004KT 12/06 A3005 RMK A01 T01240058  RH  064%=      5-min Rain = 0
KLA1 230041Z 05003KT 12/06 A3005 RMK A01 T01240058  RH  064%=      5-min Rain = 0
KLA1 230042Z 04002KT 12/06 A3005 RMK A01 T01240058  RH  064%=      5-min Rain = 0
KLA1 230043Z 04005KT 12/06 A3005 RMK A01 T01240058  RH  064%=      5-min Rain = 0
KLA1 230044Z 03004KT 12/06 A3006 RMK A01 T01240058  RH  064%=      5-min Rain = 0
KLA1 230045Z 04004KT 13/06 A3006 RMK A01 T01250059  RH  064%=      5-min Rain = 0
KLA1 230046Z 03004KT 13/06 A3006 RMK A01 T01270060  RH  064%=      5-min Rain = 0
KLA1 230047Z 04003KT 13/06 A3006 RMK A01 T01270059  RH  063%=      5-min Rain = 0
KLA1 230048Z 04005KT 13/06 A3006 RMK A01 T01270060  RH  063%=      5-min Rain = 0
KLA1 230049Z 04005KT 13/06 A3006 RMK A01 T01280060  RH  063%=      5-min Rain = 0
KLA1 230050Z 02002KT 13/06 A3006 RMK A01 T01280060  RH  063%=      5-min Rain = 0
KLA1 230051Z 34001KT 13/06 A3006 RMK A01 T01280060  RH  063%=      5-min Rain = 0
KLA1 230052Z 10002KT 13/06 A3006 RMK A01 T01270060  RH  063%=      5-min Rain = 0
KLA1 230053Z 07003KT 13/06 A3006 RMK A01 T01270060  RH  064%=      5-min Rain = 0
KLA1 230054Z 07003KT 13/06 A3006 RMK A01 T01260059  RH  064%=      5-min Rain = 0
KLA1 230055Z 08002KT 13/06 A3006 RMK A01 T01260060  RH  064%=      5-min Rain = 0
KLA1 230056Z 07001KT 13/06 A3006 RMK A01 T01260059  RH  064%=      5-min Rain = 0
KLA1 230057Z 06001KT 13/06 A3006 RMK A01 T01250059  RH  064%=      5-min Rain = 0
KLA1 230058Z 10001G6KT 13/06 A3006 RMK A01 T01250059  RH  064%=      5-min Rain = 0
KLA1 230059Z 13000KT 12/06 A3006 RMK A01 T01240059  RH  064%=      5-min Rain = 0
KLA1 230100Z 10002KT 12/06 A3006 RMK A01 T01240059  RH  064%=      5-min Rain = 0
KLA1 230101Z 10004KT 12/06 A3006 RMK A01 T01240059  RH  065%=      5-min Rain = 0
KLA1 230102Z 11006KT 12/06 A3006 RMK A01 T01230059  RH  065%=      5-min Rain = 0
KLA1 230103Z 10005KT 12/06 A3006 RMK A01 T01220059  RH  065%=      5-min Rain = 0
KLA1 230104Z 14003KT 12/06 A3006 RMK A01 T01210059  RH  066%=      5-min Rain = 0
KLA1 230105Z 10003KT 12/06 A3006 RMK A01 T01210059  RH  066%=      5-min Rain = 0
KLA1 230106Z 06002KT 12/06 A3006 RMK A01 T01200059  RH  066%=      5-min Rain = 0
KLA1 230107Z 11003KT 12/06 A3006 RMK A01 T01200059  RH  066%=      5-min Rain = 0
KLA1 230108Z 14001KT 12/06 A3006 RMK A01 T01200059  RH  066%=      5-min Rain = 0
KLA1 230109Z 17002KT 12/06 A3006 RMK A01 T01190059  RH  066%=      5-min Rain = 0
KLA1 230110Z 11001KT 12/06 A3006 RMK A01 T01190059  RH  066%=      5-min Rain = 0
KLA1 230111Z 13002KT 12/06 A3006 RMK A01 T01190059  RH  067%=      5-min Rain = 0
KLA1 230112Z 12001KT 12/06 A3006 RMK A01 T01190059  RH  067%=      5-min Rain = 0
KLA1 230113Z 12001KT 12/06 A3006 RMK A01 T01180059  RH  067%=      5-min Rain = 0
KLA1 230114Z 14002KT 12/06 A3006 RMK A01 T01180059  RH  067%=      5-min Rain = 0
KLA1 230115Z 16002KT 12/06 A3006 RMK A01 T01180059  RH  067%=      5-min Rain = 0
KLA1 230116Z 11001KT 12/06 A3007 RMK A01 T01170059  RH  067%=      5-min Rain = 0
KLA1 230117Z 28001KT 12/06 A3007 RMK A01 T01170059  RH  067%=      5-min Rain = 0
KLA1 230118Z 29002KT 12/06 A3007 RMK A01 T01170059  RH  068%=      5-min Rain = 0
KLA1 230119Z 29002KT 12/06 A3007 RMK A01 T01160059  RH  068%=      5-min Rain = 0
KLA1 230120Z 27001KT 12/06 A3007 RMK A01 T01150058  RH  068%=      5-min Rain = 0
KLA1 230121Z 27001KT 12/06 A3006 RMK A01 T01150058  RH  068%=      5-min Rain = 0
KLA1 230122Z 25001KT 11/06 A3006 RMK A01 T01140058  RH  068%=      5-min Rain = 0
KLA1 230123Z 19001KT 11/06 A3007 RMK A01 T01140058  RH  069%=      5-min Rain = 0
KLA1 230124Z 17001KT 11/06 A3007 RMK A01 T01140058  RH  069%=      5-min Rain = 0
KLA1 230125Z 17002KT 11/06 A3007 RMK A01 T01120058  RH  069%=      5-min Rain = 0
KLA1 230126Z 14002KT 11/06 A3007 RMK A01 T01120058  RH  069%=      5-min Rain = 0
KLA1 230127Z 13003KT 11/06 A3007 RMK A01 T01110057  RH  070%=      5-min Rain = 0
KLA1 230128Z 13004KT 11/06 A3007 RMK A01 T01090057  RH  070%=      5-min Rain = 0
KLA1 230129Z 09006KT 11/06 A3007 RMK A01 T01080058  RH  071%=      5-min Rain = 0
KLA1 230130Z 10003KT 11/06 A3007 RMK A01 T01080058  RH  071%=      5-min Rain = 0
KLA1 230131Z 10004KT 11/06 A3007 RMK A01 T01100059  RH  071%=      5-min Rain = 0
KLA1 230132Z 10005KT 11/06 A3007 RMK A01 T01120059  RH  070%=      5-min Rain = 0
KLA1 230133Z 10005KT 11/06 A3007 RMK A01 T01120058  RH  069%=      5-min Rain = 0
KLA1 230134Z 10004KT 11/06 A3007 RMK A01 T01130059  RH  069%=      5-min Rain = 0
KLA1 230135Z 08004KT 11/06 A3007 RMK A01 T01130059  RH  069%=      5-min Rain = 0
KLA1 230136Z 11004KT 11/06 A3007 RMK A01 T01140059  RH  069%=      5-min Rain = 0
KLA1 230137Z 09004KT 11/06 A3007 RMK A01 T01130058  RH  069%=      5-min Rain = 0
KLA1 230138Z 10004KT 11/06 A3007 RMK A01 T01140059  RH  069%=      5-min Rain = 0
KLA1 230139Z 10004KT 11/06 A3007 RMK A01 T01130059  RH  069%=      5-min Rain = 0
KLA1 230140Z 11004KT 11/06 A3007 RMK A01 T01130058  RH  069%=      5-min Rain = 0
KLA1 230141Z 09005KT 11/06 A3007 RMK A01 T01130059  RH  069%=      5-min Rain = 0
KLA1 230142Z 08004KT 11/06 A3007 RMK A01 T01130059  RH  069%=      5-min Rain = 0
KLA1 230143Z 08004KT 11/06 A3007 RMK A01 T01120058  RH  069%=      5-min Rain = 0
KLA1 230144Z 08005KT 11/06 A3007 RMK A01 T01120059  RH  070%=      5-min Rain = 0
KLA1 230145Z 05005KT 11/06 A3007 RMK A01 T01120059  RH  070%=      5-min Rain = 0
KLA1 230146Z 07004KT 11/06 A3007 RMK A01 T01120059  RH  070%=      5-min Rain = 0
KLA1 230147Z 06003KT 11/06 A3007 RMK A01 T01120059  RH  070%=      5-min Rain = 0
KLA1 230148Z 07003KT 11/06 A3007 RMK A01 T01120059  RH  070%=      5-min Rain = 0
KLA1 230149Z 06003KT 11/06 A3007 RMK A01 T01110058  RH  070%=      5-min Rain = 0
KLA1 230150Z 07002KT 11/06 A3007 RMK A01 T01110058  RH  070%=      5-min Rain = 0
KLA1 230151Z 08002KT 11/06 A3008 RMK A01 T01110058  RH  070%=      5-min Rain = 0
KLA1 230152Z 10001KT 11/06 A3008 RMK A01 T01100058  RH  070%=      5-min Rain = 0
KLA1 230153Z 17001KT 11/06 A3008 RMK A01 T01100058  RH  070%=      5-min Rain = 0
KLA1 230154Z 16001KT 11/06 A3008 RMK A01 T01090058  RH  071%=      5-min Rain = 0
KLA1 230155Z 14002KT 11/06 A3008 RMK A01 T01080058  RH  071%=      5-min Rain = 0
KLA1 230156Z 13001KT 11/06 A3008 RMK A01 T01070057  RH  071%=      5-min Rain = 0
KLA1 230157Z 14001KT 11/06 A3008 RMK A01 T01060057  RH  072%=      5-min Rain = 0
KLA1 230158Z 13002KT 11/06 A3008 RMK A01 T01060058  RH  072%=      5-min Rain = 0
KLA1 230159Z 13003KT 11/06 A3008 RMK A01 T01050057  RH  072%=      5-min Rain = 0
KLA1 230200Z 14004KT 10/06 A3008 RMK A01 T01040057  RH  072%=      5-min Rain = 0
KLA1 230201Z 13004KT 10/06 A3008 RMK A01 T01030057  RH  073%=      5-min Rain = 0
KLA1 230202Z 13004KT 10/06 A3008 RMK A01 T01020057  RH  074%=      5-min Rain = 0
KLA1 230203Z 13004KT 10/06 A3008 RMK A01 T01020057  RH  074%=      5-min Rain = 0
KLA1 230204Z 12003KT 10/06 A3008 RMK A01 T01020058  RH  074%=      5-min Rain = 0
KLA1 230205Z 11003KT 10/06 A3008 RMK A01 T01010057  RH  074%=      5-min Rain = 0
KLA1 230206Z 12005KT 10/06 A3008 RMK A01 T01010057  RH  074%=      5-min Rain = 0
KLA1 230207Z 12004KT 10/06 A3008 RMK A01 T01020058  RH  074%=      5-min Rain = 0
KLA1 230208Z 11004KT 10/06 A3008 RMK A01 T01040059  RH  074%=      5-min Rain = 0
KLA1 230209Z 10004KT 10/06 A3008 RMK A01 T01040058  RH  073%=      5-min Rain = 0
KLA1 230210Z 12005KT 10/06 A3008 RMK A01 T01040057  RH  073%=      5-min Rain = 0
KLA1 230211Z 12005KT 11/06 A3008 RMK A01 T01050058  RH  073%=      5-min Rain = 0
KLA1 230212Z 09005KT 11/06 A3008 RMK A01 T01050058  RH  073%=      5-min Rain = 0
KLA1 230213Z 10003KT 10/06 A3008 RMK A01 T01040057  RH  073%=      5-min Rain = 0
KLA1 230214Z 10004KT 10/06 A3008 RMK A01 T01040057  RH  073%=      5-min Rain = 0
KLA1 230215Z 11003KT 10/06 A3008 RMK A01 T01040057  RH  072%=      5-min Rain = 0
KLA1 230216Z 12004KT 11/06 A3008 RMK A01 T01050057  RH  072%=      5-min Rain = 0
KLA1 230217Z 12003KT 10/06 A3009 RMK A01 T01040057  RH  073%=      5-min Rain = 0
KLA1 230218Z 11004KT 10/06 A3009 RMK A01 T01040057  RH  073%=      5-min Rain = 0
KLA1 230219Z 11005KT 10/06 A3009 RMK A01 T01040057  RH  073%=      5-min Rain = 0
KLA1 230220Z 12004KT 10/06 A3008 RMK A01 T01030057  RH  073%=      5-min Rain = 0
KLA1 230221Z 12004KT 10/06 A3008 RMK A01 T01030057  RH  073%=      5-min Rain = 0
KLA1 230222Z 11004KT 10/06 A3008 RMK A01 T01030057  RH  073%=      5-min Rain = 0
KLA1 230223Z 12004KT 10/06 A3008 RMK A01 T01030057  RH  073%=      5-min Rain = 0
KLA1 230224Z 12004KT 10/06 A3008 RMK A01 T01030057  RH  073%=      5-min Rain = 0
KLA1 230225Z 10005KT 10/06 A3008 RMK A01 T01030057  RH  073%=      5-min Rain = 0
KLA1 230226Z 11004KT 10/06 A3008 RMK A01 T01020057  RH  074%=      5-min Rain = 0
KLA1 230227Z 11003KT 10/06 A3008 RMK A01 T01020057  RH  074%=      5-min Rain = 0
KLA1 230228Z 09003KT 10/06 A3008 RMK A01 T01020057  RH  074%=      5-min Rain = 0
KLA1 230229Z 09003KT 10/06 A3008 RMK A01 T01020057  RH  074%=      5-min Rain = 0
KLA1 230230Z 09002KT 10/06 A3009 RMK A01 T01020057  RH  074%=      5-min Rain = 0
KLA1 230231Z 10002KT 10/06 A3009 RMK A01 T01020057  RH  074%=      5-min Rain = 0
KLA1 230232Z 11002KT 10/06 A3009 RMK A01 T01010056  RH  074%=      5-min Rain = 0
KLA1 230233Z 13003KT 10/06 A3009 RMK A01 T01010057  RH  074%=      5-min Rain = 0
KLA1 230234Z 13003KT 10/06 A3009 RMK A01 T01010057  RH  074%=      5-min Rain = 0
KLA1 230235Z 13002KT 10/06 A3009 RMK A01 T01010057  RH  074%=      5-min Rain = 0
KLA1 230236Z 13003KT 10/06 A3009 RMK A01 T01010057  RH  074%=      5-min Rain = 0
KLA1 230237Z 12002KT 10/06 A3009 RMK A01 T01010057  RH  074%=      5-min Rain = 0
KLA1 230238Z 12002KT 10/06 A3009 RMK A01 T01010056  RH  074%=      5-min Rain = 0
KLA1 230239Z 12002KT 10/06 A3009 RMK A01 T01010057  RH  074%=      5-min Rain = 0
KLA1 230240Z 13003KT 10/06 A3009 RMK A01 T01010057  RH  074%=      5-min Rain = 0
KLA1 230241Z 13004KT 10/06 A3009 RMK A01 T01000056  RH  074%=      5-min Rain = 0
KLA1 230242Z 12004KT 10/06 A3009 RMK A01 T00990056  RH  074%=      5-min Rain = 0
KLA1 230243Z 11004KT 10/06 A3009 RMK A01 T01000057  RH  075%=      5-min Rain = 0
KLA1 230244Z 12003KT 10/06 A3009 RMK A01 T00990057  RH  075%=      5-min Rain = 0
KLA1 230245Z 11003KT 10/06 A3009 RMK A01 T01000057  RH  075%=      5-min Rain = 0
KLA1 230246Z 11003KT 10/06 A3009 RMK A01 T00990057  RH  075%=      5-min Rain = 0
KLA1 230247Z 11004KT 10/06 A3009 RMK A01 T01000057  RH  075%=      5-min Rain = 0
KLA1 230248Z 11004KT 10/06 A3009 RMK A01 T00990056  RH  075%=      5-min Rain = 0
KLA1 230249Z 11004KT 10/06 A3009 RMK A01 T01000057  RH  075%=      5-min Rain = 0
KLA1 230250Z 11003KT 10/06 A3009 RMK A01 T00990056  RH  075%=      5-min Rain = 0
KLA1 230251Z 10004KT 10/06 A3009 RMK A01 T00990056  RH  075%=      5-min Rain = 0
KLA1 230252Z 09004KT 10/06 A3009 RMK A01 T01000056  RH  074%=      5-min Rain = 0
KLA1 230253Z 10003KT 10/06 A3009 RMK A01 T01000056  RH  074%=      5-min Rain = 0
KLA1 230254Z 10003KT 10/06 A3009 RMK A01 T01000056  RH  074%=      5-min Rain = 0
KLA1 230255Z 11003KT 10/06 A3009 RMK A01 T01000056  RH  074%=      5-min Rain = 0
KLA1 230256Z 12004KT 10/06 A3009 RMK A01 T00990056  RH  074%=      5-min Rain = 0
KLA1 230257Z 11005KT 10/06 A3009 RMK A01 T00990056  RH  075%=      5-min Rain = 0
KLA1 230258Z 10005KT 10/06 A3009 RMK A01 T00980056  RH  075%=      5-min Rain = 0
KLA1 230259Z 12006KT 10/06 A3009 RMK A01 T00980056  RH  075%=      5-min Rain = 0
KLA1 230300Z 10004KT 10/06 A3009 RMK A01 T00970056  RH  075%=      5-min Rain = 0
KLA1 230301Z 09005KT 10/06 A3009 RMK A01 T00980056  RH  075%=      5-min Rain = 0
KLA1 230302Z 09005KT 10/06 A3009 RMK A01 T00980056  RH  075%=      5-min Rain = 0
KLA1 230303Z 08005KT 10/06 A3009 RMK A01 T00970056  RH  075%=      5-min Rain = 0
KLA1 230304Z 08003KT 10/06 A3009 RMK A01 T00970056  RH  075%=      5-min Rain = 0
KLA1 230305Z 07005KT 10/06 A3009 RMK A01 T00970056  RH  075%=      5-min Rain = 0
KLA1 230306Z 08005KT 10/06 A3009 RMK A01 T00970056  RH  075%=      5-min Rain = 0
KLA1 230307Z 08004KT 10/06 A3009 RMK A01 T00970056  RH  076%=      5-min Rain = 0
KLA1 230308Z 09004KT 10/06 A3009 RMK A01 T00970056  RH  076%=      5-min Rain = 0
KLA1 230309Z 09003KT 10/06 A301 RMK A01 T00970056  RH  076%=      5-min Rain = 0
KLA1 230310Z 09004KT 10/06 A301 RMK A01 T00970056  RH  076%=      5-min Rain = 0
KLA1 230311Z 10004KT 10/06 A301 RMK A01 T00960056  RH  076%=      5-min Rain = 0
KLA1 230312Z 10003KT 10/06 A301 RMK A01 T00960056  RH  076%=      5-min Rain = 0
KLA1 230313Z 11003KT 10/06 A301 RMK A01 T00960056  RH  076%=      5-min Rain = 0
KLA1 230314Z 11003KT 10/06 A301 RMK A01 T00960055  RH  076%=      5-min Rain = 0
KLA1 230315Z 11003KT 10/06 A301 RMK A01 T00950056  RH  076%=      5-min Rain = 0
KLA1 230316Z 11003KT 10/06 A301 RMK A01 T00950056  RH  076%=      5-min Rain = 0
KLA1 230317Z 10004KT 10/06 A301 RMK A01 T00950056  RH  076%=      5-min Rain = 0
KLA1 230318Z 10004KT 10/06 A301 RMK A01 T00950056  RH  076%=      5-min Rain = 0
KLA1 230319Z 10004KT 10/06 A301 RMK A01 T00950055  RH  076%=      5-min Rain = 0
KLA1 230320Z 10003KT 09/06 A301 RMK A01 T00940055  RH  077%=      5-min Rain = 0
KLA1 230321Z 09003KT 10/06 A301 RMK A01 T00950056  RH  077%=      5-min Rain = 0
KLA1 230322Z 10004KT 10/06 A301 RMK A01 T00950056  RH  077%=      5-min Rain = 0
KLA1 230323Z 09003KT 09/06 A301 RMK A01 T00940055  RH  077%=      5-min Rain = 0
KLA1 230324Z 10003KT 09/06 A301 RMK A01 T00940055  RH  077%=      5-min Rain = 0
KLA1 230325Z 10003KT 09/06 A301 RMK A01 T00930055  RH  077%=      5-min Rain = 0
KLA1 230326Z 09002KT 09/06 A301 RMK A01 T00930055  RH  077%=      5-min Rain = 0
KLA1 230327Z 08002KT 09/06 A301 RMK A01 T00930055  RH  077%=      5-min Rain = 0
KLA1 230328Z 08003KT 09/06 A301 RMK A01 T00920055  RH  077%=      5-min Rain = 0
KLA1 230329Z 09002KT 09/06 A301 RMK A01 T00920055  RH  077%=      5-min Rain = 0
KLA1 230330Z 09002KT 09/06 A301 RMK A01 T00920055  RH  077%=      5-min Rain = 0
KLA1 230331Z 09003KT 09/05 A301 RMK A01 T00920054  RH  078%=      5-min Rain = 0
KLA1 230332Z 09005KT 09/06 A301 RMK A01 T00910055  RH  078%=      5-min Rain = 0
KLA1 230333Z 09004KT 09/06 A301 RMK A01 T00910055  RH  078%=      5-min Rain = 0
KLA1 230334Z 08003KT 09/05 A301 RMK A01 T00910054  RH  078%=      5-min Rain = 0
KLA1 230335Z 09004KT 09/05 A301 RMK A01 T00910054  RH  078%=      5-min Rain = 0
KLA1 230336Z 09003KT 09/05 A301 RMK A01 T00910054  RH  078%=      5-min Rain = 0
KLA1 230337Z 09003KT 09/05 A301 RMK A01 T00900054  RH  078%=      5-min Rain = 0
KLA1 230338Z 08004KT 09/05 A301 RMK A01 T00900054  RH  078%=      5-min Rain = 0
KLA1 230339Z 08003KT 09/05 A301 RMK A01 T00900054  RH  078%=      5-min Rain = 0
KLA1 230340Z 08004KT 09/05 A301 RMK A01 T00890054  RH  078%=      5-min Rain = 0
KLA1 230341Z 09004KT 09/05 A301 RMK A01 T00890054  RH  079%=      5-min Rain = 0
KLA1 230342Z 10004KT 09/05 A301 RMK A01 T00890054  RH  079%=      5-min Rain = 0
KLA1 230343Z 08003KT 09/05 A301 RMK A01 T00890054  RH  079%=      5-min Rain = 0
KLA1 230344Z 07003KT 09/05 A301 RMK A01 T00880053  RH  079%=      5-min Rain = 0
KLA1 230345Z 07004KT 09/05 A301 RMK A01 T00880054  RH  079%=      5-min Rain = 0
KLA1 230346Z 09003KT 09/05 A301 RMK A01 T00880053  RH  079%=      5-min Rain = 0
KLA1 230347Z 10003KT 09/05 A301 RMK A01 T00880053  RH  079%=      5-min Rain = 0
KLA1 230348Z 09003KT 09/05 A301 RMK A01 T00880053  RH  079%=      5-min Rain = 0
KLA1 230349Z 08003KT 09/05 A301 RMK A01 T00880053  RH  079%=      5-min Rain = 0
KLA1 230350Z 07002KT 09/05 A301 RMK A01 T00880053  RH  079%=      5-min Rain = 0
KLA1 230351Z 08003KT 09/05 A301 RMK A01 T00880053  RH  079%=      5-min Rain = 0
KLA1 230352Z 09003KT 09/05 A301 RMK A01 T00870053  RH  079%=      5-min Rain = 0
KLA1 230353Z 08003KT 09/05 A301 RMK A01 T00880053  RH  079%=      5-min Rain = 0
KLA1 230354Z 08003KT 09/05 A301 RMK A01 T00870053  RH  079%=      5-min Rain = 0
KLA1 230355Z 07002KT 09/05 A301 RMK A01 T00880053  RH  079%=      5-min Rain = 0
KLA1 230356Z 08003KT 09/05 A301 RMK A01 T00880053  RH  079%=      5-min Rain = 0
KLA1 230357Z 09003KT 09/05 A301 RMK A01 T00880053  RH  079%=      5-min Rain = 0
KLA1 230358Z 09003KT 09/05 A301 RMK A01 T00880053  RH  079%=      5-min Rain = 0
KLA1 230359Z 08003KT 09/05 A301 RMK A01 T00870053  RH  079%=      5-min Rain = 0
KLA1 230400Z 09002KT 09/05 A301 RMK A01 T00870053  RH  079%=      5-min Rain = 0
KLA1 230401Z 10001KT 09/05 A301 RMK A01 T00870052  RH  079%=      5-min Rain = 0
KLA1 230402Z 11002KT 09/05 A301 RMK A01 T00860052  RH  079%=      5-min Rain = 0
KLA1 230403Z 11003KT 09/05 A301 RMK A01 T00860052  RH  079%=      5-min Rain = 0
KLA1 230404Z 10003KT 09/05 A301 RMK A01 T00850052  RH  079%=      5-min Rain = 0
KLA1 230405Z 10004KT 09/05 A301 RMK A01 T00850052  RH  080%=      5-min Rain = 0
KLA1 230406Z 10004KT 09/05 A301 RMK A01 T00850052  RH  080%=      5-min Rain = 0
KLA1 230407Z 09003KT 09/05 A301 RMK A01 T00850052  RH  080%=      5-min Rain = 0
KLA1 230408Z 10002KT 09/05 A301 RMK A01 T00850052  RH  080%=      5-min Rain = 0
KLA1 230409Z 10003KT 09/05 A301 RMK A01 T00850052  RH  080%=      5-min Rain = 0
KLA1 230410Z 11004KT 08/05 A301 RMK A01 T00840051  RH  080%=      5-min Rain = 0
KLA1 230411Z 10004KT 08/05 A301 RMK A01 T00840052  RH  080%=      5-min Rain = 0
KLA1 230412Z 10004KT 08/05 A301 RMK A01 T00840053  RH  081%=      5-min Rain = 0
KLA1 230413Z 09003KT 09/05 A301 RMK A01 T00850053  RH  080%=      5-min Rain = 0
KLA1 230414Z 09003KT 09/05 A301 RMK A01 T00850053  RH  080%=      5-min Rain = 0
KLA1 230415Z 08004KT 09/05 A301 RMK A01 T00850053  RH  080%=      5-min Rain = 0
KLA1 230416Z 08004KT 09/05 A301 RMK A01 T00850053  RH  080%=      5-min Rain = 0
KLA1 230417Z 08004KT 09/05 A301 RMK A01 T00850052  RH  080%=      5-min Rain = 0
KLA1 230418Z 08003KT 08/05 A301 RMK A01 T00840052  RH  080%=      5-min Rain = 0
KLA1 230419Z 08003KT 08/05 A301 RMK A01 T00840052  RH  080%=      5-min Rain = 0
KLA1 230420Z 10003KT 08/05 A301 RMK A01 T00840051  RH  080%=      5-min Rain = 0
KLA1 230421Z 10004KT 08/05 A3011 RMK A01 T00830052  RH  080%=      5-min Rain = 0
KLA1 230422Z 09003KT 08/05 A3011 RMK A01 T00830052  RH  081%=      5-min Rain = 0
KLA1 230423Z 07003KT 08/05 A3011 RMK A01 T00830052  RH  081%=      5-min Rain = 0
KLA1 230424Z 08003KT 08/05 A3011 RMK A01 T00830052  RH  081%=      5-min Rain = 0
KLA1 230425Z 08003KT 08/05 A3011 RMK A01 T00830052  RH  081%=      5-min Rain = 0
KLA1 230426Z 09002KT 08/05 A3011 RMK A01 T00830051  RH  081%=      5-min Rain = 0
KLA1 230427Z 06001KT 08/05 A3011 RMK A01 T00820050  RH  081%=      5-min Rain = 0
KLA1 230428Z 03001KT 08/05 A3011 RMK A01 T00810051  RH  081%=      5-min Rain = 0
KLA1 230429Z 04002KT 08/05 A3011 RMK A01 T00810051  RH  081%=      5-min Rain = 0
KLA1 230430Z 06002KT 08/05 A3011 RMK A01 T00800050  RH  081%=      5-min Rain = 0
KLA1 230431Z 08003KT 08/05 A3011 RMK A01 T00790049  RH  081%=      5-min Rain = 0
KLA1 230432Z 08002KT 08/05 A3011 RMK A01 T00790050  RH  082%=      5-min Rain = 0
KLA1 230433Z 08002KT 08/05 A3011 RMK A01 T00790051  RH  082%=      5-min Rain = 0
KLA1 230434Z 07002KT 08/05 A3011 RMK A01 T00790050  RH  082%=      5-min Rain = 0
KLA1 230435Z 07002KT 08/05 A3011 RMK A01 T00790050  RH  082%=      5-min Rain = 0
KLA1 230436Z 08003KT 08/05 A3011 RMK A01 T00790049  RH  081%=      5-min Rain = 0
KLA1 230437Z 10002KT 08/05 A3011 RMK A01 T00780049  RH  082%=      5-min Rain = 0
KLA1 230438Z 09003KT 08/05 A3011 RMK A01 T00770048  RH  082%=      5-min Rain = 0
KLA1 230439Z 07002KT 08/05 A3011 RMK A01 T00760048  RH  082%=      5-min Rain = 0
KLA1 230440Z 03003KT 08/05 A3011 RMK A01 T00760047  RH  082%=      5-min Rain = 0
KLA1 230441Z 02003KT 07/05 A3011 RMK A01 T00740046  RH  082%=      5-min Rain = 0
KLA1 230442Z 03003KT 07/04 A3011 RMK A01 T00720044  RH  082%=      5-min Rain = 0
KLA1 230443Z 03003KT 07/04 A3011 RMK A01 T00700044  RH  083%=      5-min Rain = 0
KLA1 230444Z 00003KT 07/05 A3011 RMK A01 T00690045  RH  085%=      5-min Rain = 0
KLA1 230445Z 36003KT 07/05 A3011 RMK A01 T00690046  RH  085%=      5-min Rain = 0
KLA1 230446Z 36004KT 07/05 A3011 RMK A01 T00690046  RH  085%=      5-min Rain = 0
KLA1 230447Z 00003KT 07/05 A3011 RMK A01 T00680046  RH  086%=      5-min Rain = 0
KLA1 230448Z 01002KT 07/05 A3011 RMK A01 T00680047  RH  086%=      5-min Rain = 0
KLA1 230449Z 01002KT 07/05 A3011 RMK A01 T00690048  RH  087%=      5-min Rain = 0
KLA1 230450Z 00002KT 07/05 A3011 RMK A01 T00700048  RH  086%=      5-min Rain = 0
KLA1 230451Z 36003KT 07/05 A3011 RMK A01 T00700048  RH  086%=      5-min Rain = 0
KLA1 230452Z 35003KT 07/05 A3011 RMK A01 T00700048  RH  086%=      5-min Rain = 0
KLA1 230453Z 36002KT 07/05 A3011 RMK A01 T00710050  RH  087%=      5-min Rain = 0
KLA1 230454Z 01002KT 07/05 A3011 RMK A01 T00710049  RH  086%=      5-min Rain = 0
KLA1 230455Z 00002KT 07/05 A3011 RMK A01 T00710048  RH  086%=      5-min Rain = 0
KLA1 230456Z 00002KT 07/05 A3011 RMK A01 T00710048  RH  085%=      5-min Rain = 0
KLA1 230457Z 36003KT 07/05 A3012 RMK A01 T00720049  RH  086%=      5-min Rain = 0
KLA1 230458Z 36002KT 07/05 A3011 RMK A01 T00720049  RH  086%=      5-min Rain = 0
KLA1 230459Z 01002KT 07/05 A3011 RMK A01 T00720049  RH  085%=      5-min Rain = 0
KLA1 230500Z 02002KT 07/05 A3011 RMK A01 T00720049  RH  085%=      5-min Rain = 0
KLA1 230501Z 01003KT 07/05 A3011 RMK A01 T00720049  RH  085%=      5-min Rain = 0
KLA1 230502Z 00003KT 07/05 A3011 RMK A01 T00720049  RH  085%=      5-min Rain = 0
KLA1 230503Z 00004KT 07/05 A3011 RMK A01 T00720049  RH  085%=      5-min Rain = 0
KLA1 230504Z 01003KT 07/05 A3011 RMK A01 T00710048  RH  085%=      5-min Rain = 0
KLA1 230505Z 01003KT 07/05 A3011 RMK A01 T00700048  RH  085%=      5-min Rain = 0
KLA1 230506Z 01002KT 07/05 A3011 RMK A01 T00700048  RH  086%=      5-min Rain = 0
KLA1 230507Z 00003KT 07/05 A3011 RMK A01 T00710048  RH  086%=      5-min Rain = 0
KLA1 230508Z 35003KT 07/05 A3011 RMK A01 T00710049  RH  086%=      5-min Rain = 0
KLA1 230509Z 36004KT 07/05 A3011 RMK A01 T00710049  RH  086%=      5-min Rain = 0
KLA1 230510Z 00002KT 07/05 A3011 RMK A01 T00710048  RH  086%=      5-min Rain = 0
KLA1 230511Z 01001KT 07/05 A3011 RMK A01 T00700048  RH  086%=      5-min Rain = 0
KLA1 230512Z 36001KT 07/05 A3011 RMK A01 T00710049  RH  086%=      5-min Rain = 0
KLA1 230513Z 35000KT 07/05 A3011 RMK A01 T00710050  RH  086%=      5-min Rain = 0
KLA1 230514Z 35000KT 07/05 A3011 RMK A01 T00720051  RH  086%=      5-min Rain = 0
KLA1 230515Z 35000KT 07/05 A3011 RMK A01 T00720049  RH  085%=      5-min Rain = 0
KLA1 230516Z 00000KT 07/05 A3011 RMK A01 T00710048  RH  085%=      5-min Rain = 0
KLA1 230517Z 00000KT 07/05 A3011 RMK A01 T00710048  RH  085%=      5-min Rain = 0
KLA1 230518Z 19001KT 07/04 A3011 RMK A01 T00680044  RH  084%=      5-min Rain = 0
KLA1 230519Z 19002KT 07/04 A3011 RMK A01 T00670043  RH  085%=      5-min Rain = 0
KLA1 230520Z 17003KT 07/04 A3011 RMK A01 T00650043  RH  086%=      5-min Rain = 0
KLA1 230521Z 17002KT 06/04 A3011 RMK A01 T00640043  RH  086%=      5-min Rain = 0
KLA1 230522Z 18003KT 06/04 A3012 RMK A01 T00640043  RH  087%=      5-min Rain = 0
KLA1 230523Z 18002KT 06/04 A3012 RMK A01 T00630043  RH  087%=      5-min Rain = 0
KLA1 230524Z 18002KT 06/04 A3012 RMK A01 T00620042  RH  087%=      5-min Rain = 0
KLA1 230525Z 17002KT 06/04 A3012 RMK A01 T00620043  RH  088%=      5-min Rain = 0
KLA1 230526Z 17002KT 06/04 A3012 RMK A01 T00610044  RH  089%=      5-min Rain = 0
KLA1 230527Z 17002KT 06/05 A3012 RMK A01 T00610045  RH  089%=      5-min Rain = 0
KLA1 230528Z 17000KT 06/04 A3012 RMK A01 T00610044  RH  089%=      5-min Rain = 0
KLA1 230529Z 00000KT 06/04 A3012 RMK A01 T00600044  RH  089%=      5-min Rain = 0
KLA1 230530Z 00000KT 06/05 A3012 RMK A01 T00600045  RH  090%=      5-min Rain = 0
KLA1 230531Z 15000KT 06/05 A3012 RMK A01 T00600045  RH  090%=      5-min Rain = 0
KLA1 230532Z 00000KT 06/05 A3012 RMK A01 T00600046  RH  091%=      5-min Rain = 0
KLA1 230533Z 00000KT 06/05 A3012 RMK A01 T00600046  RH  091%=      5-min Rain = 0
KLA1 230534Z 00000KT 06/05 A3012 RMK A01 T00600047  RH  091%=      5-min Rain = 0
KLA1 230535Z 00000KT 06/05 A3012 RMK A01 T00600047  RH  092%=      5-min Rain = 0
KLA1 230536Z 17000KT 06/05 A3012 RMK A01 T00600047  RH  092%=      5-min Rain = 0
KLA1 230537Z 17000KT 06/05 A3012 RMK A01 T00600048  RH  092%=      5-min Rain = 0
KLA1 230538Z 00000KT 06/05 A3012 RMK A01 T00590045  RH  091%=      5-min Rain = 0
KLA1 230539Z 00000KT 06/04 A3012 RMK A01 T00580043  RH  090%=      5-min Rain = 0
KLA1 230540Z 00000KT 06/04 A3012 RMK A01 T00570043  RH  091%=      5-min Rain = 0
KLA1 230541Z 00000KT 06/05 A3012 RMK A01 T00570046  RH  092%=      5-min Rain = 0
KLA1 230542Z 00000KT 06/05 A3012 RMK A01 T00570047  RH  093%=      5-min Rain = 0
KLA1 230543Z 18000KT 06/05 A3012 RMK A01 T00580048  RH  094%=      5-min Rain = 0
KLA1 230544Z 31001KT 06/05 A3012 RMK A01 T00580048  RH  093%=      5-min Rain = 0
KLA1 230545Z 32001KT 06/05 A3012 RMK A01 T00580048  RH  093%=      5-min Rain = 0
KLA1 230546Z 02002KT 06/05 A3012 RMK A01 T00560045  RH  092%=      5-min Rain = 0
KLA1 230547Z 02002KT 06/04 A3012 RMK A01 T00550042  RH  092%=      5-min Rain = 0
KLA1 230548Z 02002KT 05/04 A3012 RMK A01 T00530041  RH  092%=      5-min Rain = 0
KLA1 230549Z 01002KT 05/04 A3012 RMK A01 T00530041  RH  092%=      5-min Rain = 0
KLA1 230550Z 01002KT 05/04 A3012 RMK A01 T00530043  RH  093%=      5-min Rain = 0
KLA1 230551Z 01000KT 05/04 A3012 RMK A01 T00530044  RH  094%=      5-min Rain = 0
KLA1 230552Z 02000KT 05/05 A3012 RMK A01 T00530046  RH  095%=      5-min Rain = 0
KLA1 230553Z 00000KT 05/05 A3012 RMK A01 T00540046  RH  095%=      5-min Rain = 0
KLA1 230554Z 01001KT 05/05 A3012 RMK A01 T00540045  RH  094%=      5-min Rain = 0
KLA1 230555Z 01002KT 05/04 A3012 RMK A01 T00530044  RH  094%=      5-min Rain = 0
KLA1 230556Z 01001KT 05/04 A3012 RMK A01 T00530044  RH  094%=      5-min Rain = 0
KLA1 230557Z 02001KT 05/04 A3012 RMK A01 T00520044  RH  095%=      5-min Rain = 0
KLA1 230558Z 01001KT 05/04 A3012 RMK A01 T00510043  RH  094%=      5-min Rain = 0
KLA1 230559Z 36001KT 05/04 A3012 RMK A01 T00510043  RH  094%=      5-min Rain = 0

Page generated in 0.0819 seconds.